<?xml version="1.0" encoding="UTF-8" standalone="no" ?>
<gpx xmlns="http://www.topografix.com/GPX/1/1" xmlns:xsi="http://www.w3.org/2001/XMLSchema-instance" xsi:schemaLocation="http://www.topografix.com/GPX/1/1 http://www.topografix.com/GPX/1/1/gpx.xsd" version="1.1" creator="VisuGPX - https://www.visugpx.com">
  <metadata>
    <name>Le mas d'Azil </name>
    <desc><![CDATA[Circuit 1: La Croix            2h00-  6 km- 235 m dénivelé . A faire le matin . Panorama sur Le Mas d' Azil , le lac de Filheit et sur les Pyrénées.
Circuit 2: Les Dolmens    4h00-13 km- 380  m de dénivelé . A ne pas faire quand il fait chaud . Trop long avec peu d' intérêt . Pas de visuel quand les arbres sont feuillus. 
Circuit 3: 3 circuits en 1 : Corniches Sud et Nord et Chemin de pierres 
                                        3h00-  6 km- 370 m de dénivelé . 
Ne connaissant pas , j'ai fait les 2 corniches séparément en revenant à la route, mais on peut combiner les deux sans y revenir .
Très beau parcours à l'ombre pour la Corniche Nord . Cabanes en pierres sèches sur les 3 parcours avec panorama sur les Pyrénées . Constructions artistiques sur le Chemin de pierres .

]]></desc>
  </metadata>
  <trk>
    <name><![CDATA[Le Mas d'Azil corniches]]></name>
    <trkseg>
      <trkpt lat="43.07253" lon="1.35654">
        <ele>313.05</ele>
        <time>2017-04-08T11:52:25Z</time>
      </trkpt>
      <trkpt lat="43.07253" lon="1.35654">
        <ele>313.05</ele>
        <time>2017-04-08T11:52:26Z</time>
      </trkpt>
      <trkpt lat="43.07262" lon="1.35664">
        <ele>313.05</ele>
        <time>2017-04-08T11:53:13Z</time>
      </trkpt>
      <trkpt lat="43.07281" lon="1.3567">
        <ele>313.05</ele>
        <time>2017-04-08T11:53:27Z</time>
      </trkpt>
      <trkpt lat="43.07283" lon="1.3567">
        <ele>313.05</ele>
        <time>2017-04-08T11:53:29Z</time>
      </trkpt>
      <trkpt lat="43.07274" lon="1.35679">
        <ele>314.49</ele>
        <time>2017-04-08T11:53:40Z</time>
      </trkpt>
      <trkpt lat="43.07262" lon="1.35684">
        <ele>316.89</ele>
        <time>2017-04-08T11:53:52Z</time>
      </trkpt>
      <trkpt lat="43.07251" lon="1.35689">
        <ele>318.81</ele>
        <time>2017-04-08T11:54:02Z</time>
      </trkpt>
      <trkpt lat="43.0725" lon="1.35689">
        <ele>318.81</ele>
        <time>2017-04-08T11:54:03Z</time>
      </trkpt>
      <trkpt lat="43.07243" lon="1.35688">
        <ele>318.33</ele>
        <time>2017-04-08T11:54:09Z</time>
      </trkpt>
      <trkpt lat="43.07241" lon="1.35687">
        <ele>319.78</ele>
        <time>2017-04-08T11:54:11Z</time>
      </trkpt>
      <trkpt lat="43.07221" lon="1.35682">
        <ele>321.7</ele>
        <time>2017-04-08T11:54:29Z</time>
      </trkpt>
      <trkpt lat="43.0721" lon="1.35685">
        <ele>322.18</ele>
        <time>2017-04-08T11:54:40Z</time>
      </trkpt>
      <trkpt lat="43.07207" lon="1.35686">
        <ele>320.74</ele>
        <time>2017-04-08T11:54:43Z</time>
      </trkpt>
      <trkpt lat="43.07204" lon="1.35687">
        <ele>322.18</ele>
        <time>2017-04-08T11:54:45Z</time>
      </trkpt>
      <trkpt lat="43.07185" lon="1.35693">
        <ele>323.62</ele>
        <time>2017-04-08T11:54:59Z</time>
      </trkpt>
      <trkpt lat="43.07179" lon="1.35713">
        <ele>327.47</ele>
        <time>2017-04-08T11:55:52Z</time>
      </trkpt>
      <trkpt lat="43.07179" lon="1.35714">
        <ele>327.47</ele>
        <time>2017-04-08T11:55:53Z</time>
      </trkpt>
      <trkpt lat="43.07183" lon="1.35715">
        <ele>326.02</ele>
        <time>2017-04-08T11:55:56Z</time>
      </trkpt>
      <trkpt lat="43.07184" lon="1.35714">
        <ele>327.47</ele>
        <time>2017-04-08T11:55:57Z</time>
      </trkpt>
      <trkpt lat="43.07196" lon="1.35718">
        <ele>326.5</ele>
        <time>2017-04-08T11:56:06Z</time>
      </trkpt>
      <trkpt lat="43.07198" lon="1.35719">
        <ele>328.43</ele>
        <time>2017-04-08T11:56:08Z</time>
      </trkpt>
      <trkpt lat="43.072" lon="1.3572">
        <ele>326.99</ele>
        <time>2017-04-08T11:56:10Z</time>
      </trkpt>
      <trkpt lat="43.07204" lon="1.35722">
        <ele>327.95</ele>
        <time>2017-04-08T11:56:13Z</time>
      </trkpt>
      <trkpt lat="43.0722" lon="1.35737">
        <ele>330.83</ele>
        <time>2017-04-08T11:56:27Z</time>
      </trkpt>
      <trkpt lat="43.0724" lon="1.35754">
        <ele>332.75</ele>
        <time>2017-04-08T11:56:46Z</time>
      </trkpt>
      <trkpt lat="43.07247" lon="1.3576">
        <ele>333.23</ele>
        <time>2017-04-08T11:56:52Z</time>
      </trkpt>
      <trkpt lat="43.07269" lon="1.35775">
        <ele>336.12</ele>
        <time>2017-04-08T11:57:12Z</time>
      </trkpt>
      <trkpt lat="43.07271" lon="1.35777">
        <ele>334.68</ele>
        <time>2017-04-08T11:57:14Z</time>
      </trkpt>
      <trkpt lat="43.07274" lon="1.35778">
        <ele>336.6</ele>
        <time>2017-04-08T11:57:16Z</time>
      </trkpt>
      <trkpt lat="43.07283" lon="1.35787">
        <ele>339</ele>
        <time>2017-04-08T11:57:25Z</time>
      </trkpt>
      <trkpt lat="43.07285" lon="1.3579">
        <ele>337.56</ele>
        <time>2017-04-08T11:57:28Z</time>
      </trkpt>
      <trkpt lat="43.07286" lon="1.35793">
        <ele>339</ele>
        <time>2017-04-08T11:57:30Z</time>
      </trkpt>
      <trkpt lat="43.07286" lon="1.35807">
        <ele>341.41</ele>
        <time>2017-04-08T11:57:40Z</time>
      </trkpt>
      <trkpt lat="43.07283" lon="1.35814">
        <ele>341.89</ele>
        <time>2017-04-08T11:57:45Z</time>
      </trkpt>
      <trkpt lat="43.07273" lon="1.35826">
        <ele>343.81</ele>
        <time>2017-04-08T11:57:58Z</time>
      </trkpt>
      <trkpt lat="43.07258" lon="1.35828">
        <ele>344.77</ele>
        <time>2017-04-08T11:58:10Z</time>
      </trkpt>
      <trkpt lat="43.07239" lon="1.35823">
        <ele>346.21</ele>
        <time>2017-04-08T11:58:25Z</time>
      </trkpt>
      <trkpt lat="43.07223" lon="1.35809">
        <ele>348.62</ele>
        <time>2017-04-08T11:58:40Z</time>
      </trkpt>
      <trkpt lat="43.07211" lon="1.35799">
        <ele>348.13</ele>
        <time>2017-04-08T11:58:51Z</time>
      </trkpt>
      <trkpt lat="43.07209" lon="1.35798">
        <ele>350.06</ele>
        <time>2017-04-08T11:58:53Z</time>
      </trkpt>
      <trkpt lat="43.07197" lon="1.35791">
        <ele>351.02</ele>
        <time>2017-04-08T11:59:04Z</time>
      </trkpt>
      <trkpt lat="43.07191" lon="1.35792">
        <ele>352.46</ele>
        <time>2017-04-08T11:59:09Z</time>
      </trkpt>
      <trkpt lat="43.07179" lon="1.35797">
        <ele>353.42</ele>
        <time>2017-04-08T11:59:20Z</time>
      </trkpt>
      <trkpt lat="43.07169" lon="1.35793">
        <ele>354.86</ele>
        <time>2017-04-08T11:59:30Z</time>
      </trkpt>
      <trkpt lat="43.07167" lon="1.35791">
        <ele>353.42</ele>
        <time>2017-04-08T11:59:33Z</time>
      </trkpt>
      <trkpt lat="43.07166" lon="1.35789">
        <ele>354.38</ele>
        <time>2017-04-08T11:59:35Z</time>
      </trkpt>
      <trkpt lat="43.07157" lon="1.35775">
        <ele>356.79</ele>
        <time>2017-04-08T11:59:46Z</time>
      </trkpt>
      <trkpt lat="43.07148" lon="1.3576">
        <ele>358.23</ele>
        <time>2017-04-08T11:59:57Z</time>
      </trkpt>
      <trkpt lat="43.07128" lon="1.35742">
        <ele>361.59</ele>
        <time>2017-04-08T12:00:16Z</time>
      </trkpt>
      <trkpt lat="43.07115" lon="1.35733">
        <ele>362.55</ele>
        <time>2017-04-08T12:00:32Z</time>
      </trkpt>
      <trkpt lat="43.07114" lon="1.35727">
        <ele>363.04</ele>
        <time>2017-04-08T12:01:02Z</time>
      </trkpt>
      <trkpt lat="43.07113" lon="1.35727">
        <ele>363.04</ele>
        <time>2017-04-08T12:01:29Z</time>
      </trkpt>
      <trkpt lat="43.07105" lon="1.35723">
        <ele>363.52</ele>
        <time>2017-04-08T12:01:53Z</time>
      </trkpt>
      <trkpt lat="43.07082" lon="1.35716">
        <ele>365.92</ele>
        <time>2017-04-08T12:02:10Z</time>
      </trkpt>
      <trkpt lat="43.07068" lon="1.35708">
        <ele>367.36</ele>
        <time>2017-04-08T12:02:23Z</time>
      </trkpt>
      <trkpt lat="43.07059" lon="1.35703">
        <ele>369.28</ele>
        <time>2017-04-08T12:02:31Z</time>
      </trkpt>
      <trkpt lat="43.07042" lon="1.35693">
        <ele>369.76</ele>
        <time>2017-04-08T12:02:46Z</time>
      </trkpt>
      <trkpt lat="43.07023" lon="1.35684">
        <ele>372.17</ele>
        <time>2017-04-08T12:03:02Z</time>
      </trkpt>
      <trkpt lat="43.0702" lon="1.35683">
        <ele>373.61</ele>
        <time>2017-04-08T12:03:04Z</time>
      </trkpt>
      <trkpt lat="43.07014" lon="1.35681">
        <ele>373.61</ele>
        <time>2017-04-08T12:03:17Z</time>
      </trkpt>
      <trkpt lat="43.07012" lon="1.35677">
        <ele>370.73</ele>
        <time>2017-04-08T12:04:13Z</time>
      </trkpt>
      <trkpt lat="43.07011" lon="1.35676">
        <ele>376.01</ele>
        <time>2017-04-08T12:04:14Z</time>
      </trkpt>
      <trkpt lat="43.0701" lon="1.35669">
        <ele>375.05</ele>
        <time>2017-04-08T12:04:20Z</time>
      </trkpt>
      <trkpt lat="43.07008" lon="1.35659">
        <ele>377.94</ele>
        <time>2017-04-08T12:04:28Z</time>
      </trkpt>
      <trkpt lat="43.07008" lon="1.35657">
        <ele>377.94</ele>
        <time>2017-04-08T12:04:29Z</time>
      </trkpt>
      <trkpt lat="43.07006" lon="1.35653">
        <ele>378.42</ele>
        <time>2017-04-08T12:04:33Z</time>
      </trkpt>
      <trkpt lat="43.07001" lon="1.35629">
        <ele>379.86</ele>
        <time>2017-04-08T12:04:48Z</time>
      </trkpt>
      <trkpt lat="43.06997" lon="1.35609">
        <ele>383.22</ele>
        <time>2017-04-08T12:05:05Z</time>
      </trkpt>
      <trkpt lat="43.06994" lon="1.35588">
        <ele>387.07</ele>
        <time>2017-04-08T12:05:22Z</time>
      </trkpt>
      <trkpt lat="43.06999" lon="1.3558">
        <ele>388.51</ele>
        <time>2017-04-08T12:05:32Z</time>
      </trkpt>
      <trkpt lat="43.07005" lon="1.35575">
        <ele>391.39</ele>
        <time>2017-04-08T12:05:40Z</time>
      </trkpt>
      <trkpt lat="43.07005" lon="1.35572">
        <ele>389.95</ele>
        <time>2017-04-08T12:06:19Z</time>
      </trkpt>
      <trkpt lat="43.06997" lon="1.3557">
        <ele>392.84</ele>
        <time>2017-04-08T12:06:58Z</time>
      </trkpt>
      <trkpt lat="43.06995" lon="1.35569">
        <ele>392.84</ele>
        <time>2017-04-08T12:07:00Z</time>
      </trkpt>
      <trkpt lat="43.06986" lon="1.35566">
        <ele>396.2</ele>
        <time>2017-04-08T12:07:10Z</time>
      </trkpt>
      <trkpt lat="43.06973" lon="1.35564">
        <ele>399.08</ele>
        <time>2017-04-08T12:07:25Z</time>
      </trkpt>
      <trkpt lat="43.06958" lon="1.35561">
        <ele>402.93</ele>
        <time>2017-04-08T12:07:45Z</time>
      </trkpt>
      <trkpt lat="43.06957" lon="1.35561">
        <ele>402.93</ele>
        <time>2017-04-08T12:07:46Z</time>
      </trkpt>
      <trkpt lat="43.06956" lon="1.35561">
        <ele>401.97</ele>
        <time>2017-04-08T12:07:48Z</time>
      </trkpt>
      <trkpt lat="43.06953" lon="1.35561">
        <ele>403.89</ele>
        <time>2017-04-08T12:07:52Z</time>
      </trkpt>
      <trkpt lat="43.06943" lon="1.35553">
        <ele>407.26</ele>
        <time>2017-04-08T12:08:05Z</time>
      </trkpt>
      <trkpt lat="43.06942" lon="1.3555">
        <ele>406.77</ele>
        <time>2017-04-08T12:08:09Z</time>
      </trkpt>
      <trkpt lat="43.06941" lon="1.35549">
        <ele>405.33</ele>
        <time>2017-04-08T12:08:11Z</time>
      </trkpt>
      <trkpt lat="43.06933" lon="1.3554">
        <ele>409.66</ele>
        <time>2017-04-08T12:08:22Z</time>
      </trkpt>
      <trkpt lat="43.06932" lon="1.35539">
        <ele>409.66</ele>
        <time>2017-04-08T12:08:23Z</time>
      </trkpt>
      <trkpt lat="43.06927" lon="1.35536">
        <ele>409.18</ele>
        <time>2017-04-08T12:08:29Z</time>
      </trkpt>
      <trkpt lat="43.06925" lon="1.35535">
        <ele>411.1</ele>
        <time>2017-04-08T12:08:31Z</time>
      </trkpt>
      <trkpt lat="43.06916" lon="1.35523">
        <ele>413.02</ele>
        <time>2017-04-08T12:08:46Z</time>
      </trkpt>
      <trkpt lat="43.06901" lon="1.35504">
        <ele>416.87</ele>
        <time>2017-04-08T12:09:06Z</time>
      </trkpt>
      <trkpt lat="43.06897" lon="1.35499">
        <ele>417.35</ele>
        <time>2017-04-08T12:09:11Z</time>
      </trkpt>
      <trkpt lat="43.06893" lon="1.35484">
        <ele>421.19</ele>
        <time>2017-04-08T12:09:25Z</time>
      </trkpt>
      <trkpt lat="43.06892" lon="1.35482">
        <ele>421.19</ele>
        <time>2017-04-08T12:09:26Z</time>
      </trkpt>
      <trkpt lat="43.06891" lon="1.35472">
        <ele>421.19</ele>
        <time>2017-04-08T12:09:33Z</time>
      </trkpt>
      <trkpt lat="43.0689" lon="1.35451">
        <ele>425.04</ele>
        <time>2017-04-08T12:09:48Z</time>
      </trkpt>
      <trkpt lat="43.0689" lon="1.35449">
        <ele>425.04</ele>
        <time>2017-04-08T12:09:49Z</time>
      </trkpt>
      <trkpt lat="43.06887" lon="1.3544">
        <ele>427.44</ele>
        <time>2017-04-08T12:10:05Z</time>
      </trkpt>
      <trkpt lat="43.06881" lon="1.35433">
        <ele>430.33</ele>
        <time>2017-04-08T12:10:17Z</time>
      </trkpt>
      <trkpt lat="43.0688" lon="1.35432">
        <ele>430.33</ele>
        <time>2017-04-08T12:10:18Z</time>
      </trkpt>
      <trkpt lat="43.06871" lon="1.35424">
        <ele>432.25</ele>
        <time>2017-04-08T12:10:30Z</time>
      </trkpt>
      <trkpt lat="43.06861" lon="1.35411">
        <ele>434.65</ele>
        <time>2017-04-08T12:10:48Z</time>
      </trkpt>
      <trkpt lat="43.06856" lon="1.354">
        <ele>437.06</ele>
        <time>2017-04-08T12:10:58Z</time>
      </trkpt>
      <trkpt lat="43.06849" lon="1.35388">
        <ele>440.42</ele>
        <time>2017-04-08T12:11:12Z</time>
      </trkpt>
      <trkpt lat="43.06846" lon="1.35382">
        <ele>441.86</ele>
        <time>2017-04-08T12:11:18Z</time>
      </trkpt>
      <trkpt lat="43.06843" lon="1.35373">
        <ele>443.79</ele>
        <time>2017-04-08T12:11:26Z</time>
      </trkpt>
      <trkpt lat="43.06841" lon="1.35364">
        <ele>445.71</ele>
        <time>2017-04-08T12:11:34Z</time>
      </trkpt>
      <trkpt lat="43.06836" lon="1.35344">
        <ele>448.59</ele>
        <time>2017-04-08T12:11:50Z</time>
      </trkpt>
      <trkpt lat="43.06834" lon="1.35325">
        <ele>451.96</ele>
        <time>2017-04-08T12:12:06Z</time>
      </trkpt>
      <trkpt lat="43.06825" lon="1.35304">
        <ele>452.92</ele>
        <time>2017-04-08T12:12:23Z</time>
      </trkpt>
      <trkpt lat="43.06823" lon="1.35293">
        <ele>453.4</ele>
        <time>2017-04-08T12:12:33Z</time>
      </trkpt>
      <trkpt lat="43.06823" lon="1.35289">
        <ele>454.84</ele>
        <time>2017-04-08T12:12:35Z</time>
      </trkpt>
      <trkpt lat="43.06822" lon="1.35284">
        <ele>454.84</ele>
        <time>2017-04-08T12:12:38Z</time>
      </trkpt>
      <trkpt lat="43.06821" lon="1.35274">
        <ele>454.36</ele>
        <time>2017-04-08T12:12:44Z</time>
      </trkpt>
      <trkpt lat="43.06817" lon="1.35252">
        <ele>457.72</ele>
        <time>2017-04-08T12:12:57Z</time>
      </trkpt>
      <trkpt lat="43.06809" lon="1.35235">
        <ele>458.21</ele>
        <time>2017-04-08T12:13:12Z</time>
      </trkpt>
      <trkpt lat="43.06808" lon="1.35231">
        <ele>456.76</ele>
        <time>2017-04-08T12:13:15Z</time>
      </trkpt>
      <trkpt lat="43.06808" lon="1.35228">
        <ele>458.21</ele>
        <time>2017-04-08T12:13:17Z</time>
      </trkpt>
      <trkpt lat="43.06807" lon="1.35225">
        <ele>458.21</ele>
        <time>2017-04-08T12:13:35Z</time>
      </trkpt>
      <trkpt lat="43.06803" lon="1.35223">
        <ele>456.28</ele>
        <time>2017-04-08T12:14:52Z</time>
      </trkpt>
      <trkpt lat="43.06799" lon="1.3522">
        <ele>454.84</ele>
        <time>2017-04-08T12:15:12Z</time>
      </trkpt>
      <trkpt lat="43.06798" lon="1.35221">
        <ele>454.36</ele>
        <time>2017-04-08T12:15:45Z</time>
      </trkpt>
      <trkpt lat="43.06796" lon="1.35221">
        <ele>455.32</ele>
        <time>2017-04-08T12:16:14Z</time>
      </trkpt>
      <trkpt lat="43.06795" lon="1.3522">
        <ele>453.88</ele>
        <time>2017-04-08T12:16:16Z</time>
      </trkpt>
      <trkpt lat="43.06786" lon="1.35218">
        <ele>451</ele>
        <time>2017-04-08T12:16:33Z</time>
      </trkpt>
      <trkpt lat="43.06785" lon="1.35218">
        <ele>451</ele>
        <time>2017-04-08T12:16:36Z</time>
      </trkpt>
      <trkpt lat="43.06774" lon="1.35225">
        <ele>449.55</ele>
        <time>2017-04-08T12:16:51Z</time>
      </trkpt>
      <trkpt lat="43.06771" lon="1.35224">
        <ele>448.11</ele>
        <time>2017-04-08T12:18:38Z</time>
      </trkpt>
      <trkpt lat="43.06762" lon="1.35231">
        <ele>444.75</ele>
        <time>2017-04-08T12:18:53Z</time>
      </trkpt>
      <trkpt lat="43.0676" lon="1.35232">
        <ele>444.75</ele>
        <time>2017-04-08T12:18:56Z</time>
      </trkpt>
      <trkpt lat="43.06751" lon="1.35242">
        <ele>441.38</ele>
        <time>2017-04-08T12:19:14Z</time>
      </trkpt>
      <trkpt lat="43.06749" lon="1.35243">
        <ele>440.9</ele>
        <time>2017-04-08T12:19:37Z</time>
      </trkpt>
      <trkpt lat="43.06742" lon="1.35249">
        <ele>438.02</ele>
        <time>2017-04-08T12:19:52Z</time>
      </trkpt>
      <trkpt lat="43.06738" lon="1.3525">
        <ele>436.1</ele>
        <time>2017-04-08T12:20:46Z</time>
      </trkpt>
      <trkpt lat="43.06734" lon="1.35251">
        <ele>436.1</ele>
        <time>2017-04-08T12:21:13Z</time>
      </trkpt>
      <trkpt lat="43.0673" lon="1.35254">
        <ele>433.69</ele>
        <time>2017-04-08T12:21:33Z</time>
      </trkpt>
      <trkpt lat="43.06729" lon="1.35256">
        <ele>432.73</ele>
        <time>2017-04-08T12:21:56Z</time>
      </trkpt>
      <trkpt lat="43.06722" lon="1.35245">
        <ele>431.77</ele>
        <time>2017-04-08T12:22:09Z</time>
      </trkpt>
      <trkpt lat="43.06718" lon="1.3524">
        <ele>431.29</ele>
        <time>2017-04-08T12:22:24Z</time>
      </trkpt>
      <trkpt lat="43.06717" lon="1.3524">
        <ele>431.29</ele>
        <time>2017-04-08T12:22:36Z</time>
      </trkpt>
      <trkpt lat="43.06713" lon="1.35241">
        <ele>430.33</ele>
        <time>2017-04-08T12:22:41Z</time>
      </trkpt>
      <trkpt lat="43.06707" lon="1.3524">
        <ele>428.89</ele>
        <time>2017-04-08T12:22:52Z</time>
      </trkpt>
      <trkpt lat="43.06701" lon="1.35246">
        <ele>425.04</ele>
        <time>2017-04-08T12:23:24Z</time>
      </trkpt>
      <trkpt lat="43.06697" lon="1.35248">
        <ele>425.04</ele>
        <time>2017-04-08T12:23:40Z</time>
      </trkpt>
      <trkpt lat="43.06697" lon="1.35243">
        <ele>425.52</ele>
        <time>2017-04-08T12:23:59Z</time>
      </trkpt>
      <trkpt lat="43.06697" lon="1.35242">
        <ele>425.52</ele>
        <time>2017-04-08T12:24:23Z</time>
      </trkpt>
      <trkpt lat="43.06697" lon="1.35241">
        <ele>425.52</ele>
        <time>2017-04-08T12:24:46Z</time>
      </trkpt>
      <trkpt lat="43.06697" lon="1.3524">
        <ele>424.56</ele>
        <time>2017-04-08T12:24:55Z</time>
      </trkpt>
      <trkpt lat="43.06698" lon="1.35236">
        <ele>425.52</ele>
        <time>2017-04-08T12:25:44Z</time>
      </trkpt>
      <trkpt lat="43.06691" lon="1.35234">
        <ele>422.64</ele>
        <time>2017-04-08T12:26:42Z</time>
      </trkpt>
      <trkpt lat="43.06691" lon="1.35243">
        <ele>421.68</ele>
        <time>2017-04-08T12:26:58Z</time>
      </trkpt>
      <trkpt lat="43.06696" lon="1.35252">
        <ele>420.71</ele>
        <time>2017-04-08T12:27:12Z</time>
      </trkpt>
      <trkpt lat="43.06696" lon="1.35253">
        <ele>421.68</ele>
        <time>2017-04-08T12:27:14Z</time>
      </trkpt>
      <trkpt lat="43.067" lon="1.35261">
        <ele>420.23</ele>
        <time>2017-04-08T12:27:21Z</time>
      </trkpt>
      <trkpt lat="43.06712" lon="1.35276">
        <ele>419.27</ele>
        <time>2017-04-08T12:27:36Z</time>
      </trkpt>
      <trkpt lat="43.06716" lon="1.35282">
        <ele>419.27</ele>
        <time>2017-04-08T12:27:42Z</time>
      </trkpt>
      <trkpt lat="43.06722" lon="1.35289">
        <ele>418.79</ele>
        <time>2017-04-08T12:27:49Z</time>
      </trkpt>
      <trkpt lat="43.0673" lon="1.35296">
        <ele>418.31</ele>
        <time>2017-04-08T12:27:59Z</time>
      </trkpt>
      <trkpt lat="43.06742" lon="1.35309">
        <ele>418.31</ele>
        <time>2017-04-08T12:28:15Z</time>
      </trkpt>
      <trkpt lat="43.06751" lon="1.35321">
        <ele>418.79</ele>
        <time>2017-04-08T12:28:32Z</time>
      </trkpt>
      <trkpt lat="43.0676" lon="1.35331">
        <ele>419.75</ele>
        <time>2017-04-08T12:28:41Z</time>
      </trkpt>
      <trkpt lat="43.06768" lon="1.3535">
        <ele>420.71</ele>
        <time>2017-04-08T12:28:56Z</time>
      </trkpt>
      <trkpt lat="43.06769" lon="1.35351">
        <ele>421.68</ele>
        <time>2017-04-08T12:28:57Z</time>
      </trkpt>
      <trkpt lat="43.06777" lon="1.35366">
        <ele>422.64</ele>
        <time>2017-04-08T12:29:12Z</time>
      </trkpt>
      <trkpt lat="43.06778" lon="1.35369">
        <ele>421.19</ele>
        <time>2017-04-08T12:29:15Z</time>
      </trkpt>
      <trkpt lat="43.0678" lon="1.35374">
        <ele>419.75</ele>
        <time>2017-04-08T12:29:19Z</time>
      </trkpt>
      <trkpt lat="43.06787" lon="1.35387">
        <ele>417.83</ele>
        <time>2017-04-08T12:29:33Z</time>
      </trkpt>
      <trkpt lat="43.06788" lon="1.35386">
        <ele>417.83</ele>
        <time>2017-04-08T12:29:50Z</time>
      </trkpt>
      <trkpt lat="43.0679" lon="1.35388">
        <ele>417.35</ele>
        <time>2017-04-08T12:30:11Z</time>
      </trkpt>
      <trkpt lat="43.06791" lon="1.35392">
        <ele>418.79</ele>
        <time>2017-04-08T12:30:37Z</time>
      </trkpt>
      <trkpt lat="43.06792" lon="1.35394">
        <ele>417.83</ele>
        <time>2017-04-08T12:31:26Z</time>
      </trkpt>
      <trkpt lat="43.06796" lon="1.35394">
        <ele>417.35</ele>
        <time>2017-04-08T12:31:44Z</time>
      </trkpt>
      <trkpt lat="43.06797" lon="1.35396">
        <ele>418.31</ele>
        <time>2017-04-08T12:31:47Z</time>
      </trkpt>
      <trkpt lat="43.06801" lon="1.35401">
        <ele>417.35</ele>
        <time>2017-04-08T12:32:04Z</time>
      </trkpt>
      <trkpt lat="43.06804" lon="1.35405">
        <ele>418.79</ele>
        <time>2017-04-08T12:32:16Z</time>
      </trkpt>
      <trkpt lat="43.06806" lon="1.35406">
        <ele>417.35</ele>
        <time>2017-04-08T12:32:18Z</time>
      </trkpt>
      <trkpt lat="43.06808" lon="1.35408">
        <ele>416.87</ele>
        <time>2017-04-08T12:32:21Z</time>
      </trkpt>
      <trkpt lat="43.06815" lon="1.35415">
        <ele>416.87</ele>
        <time>2017-04-08T12:32:27Z</time>
      </trkpt>
      <trkpt lat="43.06817" lon="1.35419">
        <ele>415.91</ele>
        <time>2017-04-08T12:32:33Z</time>
      </trkpt>
      <trkpt lat="43.06821" lon="1.35419">
        <ele>419.27</ele>
        <time>2017-04-08T12:32:43Z</time>
      </trkpt>
      <trkpt lat="43.06826" lon="1.35418">
        <ele>421.19</ele>
        <time>2017-04-08T12:32:51Z</time>
      </trkpt>
      <trkpt lat="43.06839" lon="1.3543">
        <ele>421.68</ele>
        <time>2017-04-08T12:33:08Z</time>
      </trkpt>
      <trkpt lat="43.06843" lon="1.35436">
        <ele>421.68</ele>
        <time>2017-04-08T12:33:25Z</time>
      </trkpt>
      <trkpt lat="43.06847" lon="1.35439">
        <ele>421.19</ele>
        <time>2017-04-08T12:33:37Z</time>
      </trkpt>
      <trkpt lat="43.0685" lon="1.35438">
        <ele>420.71</ele>
        <time>2017-04-08T12:34:03Z</time>
      </trkpt>
      <trkpt lat="43.06863" lon="1.35443">
        <ele>422.64</ele>
        <time>2017-04-08T12:34:19Z</time>
      </trkpt>
      <trkpt lat="43.06865" lon="1.35444">
        <ele>422.16</ele>
        <time>2017-04-08T12:34:44Z</time>
      </trkpt>
      <trkpt lat="43.06871" lon="1.35441">
        <ele>424.08</ele>
        <time>2017-04-08T12:34:50Z</time>
      </trkpt>
      <trkpt lat="43.06884" lon="1.35443">
        <ele>423.12</ele>
        <time>2017-04-08T12:35:07Z</time>
      </trkpt>
      <trkpt lat="43.06889" lon="1.3545">
        <ele>421.19</ele>
        <time>2017-04-08T12:35:25Z</time>
      </trkpt>
      <trkpt lat="43.06892" lon="1.35465">
        <ele>419.27</ele>
        <time>2017-04-08T12:35:35Z</time>
      </trkpt>
      <trkpt lat="43.06895" lon="1.35475">
        <ele>416.87</ele>
        <time>2017-04-08T12:35:43Z</time>
      </trkpt>
      <trkpt lat="43.06901" lon="1.35493">
        <ele>413.5</ele>
        <time>2017-04-08T12:35:57Z</time>
      </trkpt>
      <trkpt lat="43.06901" lon="1.355">
        <ele>413.98</ele>
        <time>2017-04-08T12:36:16Z</time>
      </trkpt>
      <trkpt lat="43.06902" lon="1.35505">
        <ele>412.54</ele>
        <time>2017-04-08T12:36:38Z</time>
      </trkpt>
      <trkpt lat="43.06907" lon="1.35509">
        <ele>412.06</ele>
        <time>2017-04-08T12:36:44Z</time>
      </trkpt>
      <trkpt lat="43.06917" lon="1.3552">
        <ele>410.62</ele>
        <time>2017-04-08T12:36:57Z</time>
      </trkpt>
      <trkpt lat="43.0692" lon="1.35524">
        <ele>410.14</ele>
        <time>2017-04-08T12:37:01Z</time>
      </trkpt>
      <trkpt lat="43.06922" lon="1.35527">
        <ele>409.66</ele>
        <time>2017-04-08T12:37:04Z</time>
      </trkpt>
      <trkpt lat="43.06933" lon="1.35539">
        <ele>406.77</ele>
        <time>2017-04-08T12:37:17Z</time>
      </trkpt>
      <trkpt lat="43.06942" lon="1.35551">
        <ele>402.93</ele>
        <time>2017-04-08T12:37:30Z</time>
      </trkpt>
      <trkpt lat="43.06948" lon="1.35557">
        <ele>401.49</ele>
        <time>2017-04-08T12:37:46Z</time>
      </trkpt>
      <trkpt lat="43.06956" lon="1.35559">
        <ele>398.6</ele>
        <time>2017-04-08T12:37:55Z</time>
      </trkpt>
      <trkpt lat="43.06962" lon="1.3556">
        <ele>396.68</ele>
        <time>2017-04-08T12:38:00Z</time>
      </trkpt>
      <trkpt lat="43.06976" lon="1.35565">
        <ele>394.28</ele>
        <time>2017-04-08T12:38:13Z</time>
      </trkpt>
      <trkpt lat="43.06982" lon="1.35566">
        <ele>391.87</ele>
        <time>2017-04-08T12:38:20Z</time>
      </trkpt>
      <trkpt lat="43.06988" lon="1.35567">
        <ele>390.43</ele>
        <time>2017-04-08T12:38:25Z</time>
      </trkpt>
      <trkpt lat="43.06999" lon="1.35573">
        <ele>388.51</ele>
        <time>2017-04-08T12:38:35Z</time>
      </trkpt>
      <trkpt lat="43.07001" lon="1.35591">
        <ele>385.15</ele>
        <time>2017-04-08T12:43:39Z</time>
      </trkpt>
      <trkpt lat="43.06999" lon="1.35593">
        <ele>384.18</ele>
        <time>2017-04-08T12:43:53Z</time>
      </trkpt>
      <trkpt lat="43.07001" lon="1.35591">
        <ele>384.18</ele>
        <time>2017-04-08T12:44:26Z</time>
      </trkpt>
      <trkpt lat="43.07001" lon="1.35591">
        <ele>384.66</ele>
        <time>2017-04-08T12:44:52Z</time>
      </trkpt>
      <trkpt lat="43.07" lon="1.35595">
        <ele>382.74</ele>
        <time>2017-04-08T12:44:55Z</time>
      </trkpt>
      <trkpt lat="43.07003" lon="1.3561">
        <ele>380.34</ele>
        <time>2017-04-08T12:45:06Z</time>
      </trkpt>
      <trkpt lat="43.07003" lon="1.35618">
        <ele>378.9</ele>
        <time>2017-04-08T12:45:11Z</time>
      </trkpt>
      <trkpt lat="43.07009" lon="1.3564">
        <ele>376.49</ele>
        <time>2017-04-08T12:45:27Z</time>
      </trkpt>
      <trkpt lat="43.07013" lon="1.35656">
        <ele>373.13</ele>
        <time>2017-04-08T12:45:38Z</time>
      </trkpt>
      <trkpt lat="43.07013" lon="1.35657">
        <ele>373.13</ele>
        <time>2017-04-08T12:45:39Z</time>
      </trkpt>
      <trkpt lat="43.07014" lon="1.35668">
        <ele>370.73</ele>
        <time>2017-04-08T12:45:48Z</time>
      </trkpt>
      <trkpt lat="43.07016" lon="1.35674">
        <ele>370.73</ele>
        <time>2017-04-08T12:45:59Z</time>
      </trkpt>
      <trkpt lat="43.07023" lon="1.35681">
        <ele>369.28</ele>
        <time>2017-04-08T12:46:08Z</time>
      </trkpt>
      <trkpt lat="43.07025" lon="1.35682">
        <ele>369.28</ele>
        <time>2017-04-08T12:46:10Z</time>
      </trkpt>
      <trkpt lat="43.07029" lon="1.35686">
        <ele>369.28</ele>
        <time>2017-04-08T12:46:14Z</time>
      </trkpt>
      <trkpt lat="43.07038" lon="1.35688">
        <ele>363.04</ele>
        <time>2017-04-08T12:46:27Z</time>
      </trkpt>
      <trkpt lat="43.07039" lon="1.35688">
        <ele>369.28</ele>
        <time>2017-04-08T12:46:28Z</time>
      </trkpt>
      <trkpt lat="43.07045" lon="1.35687">
        <ele>368.32</ele>
        <time>2017-04-08T12:46:44Z</time>
      </trkpt>
      <trkpt lat="43.07044" lon="1.35685">
        <ele>368.32</ele>
        <time>2017-04-08T12:46:49Z</time>
      </trkpt>
      <trkpt lat="43.07042" lon="1.35681">
        <ele>367.84</ele>
        <time>2017-04-08T12:46:53Z</time>
      </trkpt>
      <trkpt lat="43.07042" lon="1.35674">
        <ele>367.36</ele>
        <time>2017-04-08T12:46:58Z</time>
      </trkpt>
      <trkpt lat="43.07057" lon="1.35675">
        <ele>364.48</ele>
        <time>2017-04-08T12:47:11Z</time>
      </trkpt>
      <trkpt lat="43.07061" lon="1.35677">
        <ele>364</ele>
        <time>2017-04-08T12:47:15Z</time>
      </trkpt>
      <trkpt lat="43.07073" lon="1.35681">
        <ele>361.11</ele>
        <time>2017-04-08T12:47:30Z</time>
      </trkpt>
      <trkpt lat="43.07074" lon="1.35675">
        <ele>359.67</ele>
        <time>2017-04-08T12:47:44Z</time>
      </trkpt>
      <trkpt lat="43.07076" lon="1.35671">
        <ele>359.67</ele>
        <time>2017-04-08T12:47:48Z</time>
      </trkpt>
      <trkpt lat="43.0708" lon="1.35664">
        <ele>358.71</ele>
        <time>2017-04-08T12:47:57Z</time>
      </trkpt>
      <trkpt lat="43.07081" lon="1.35661">
        <ele>358.71</ele>
        <time>2017-04-08T12:48:10Z</time>
      </trkpt>
      <trkpt lat="43.07081" lon="1.35659">
        <ele>358.71</ele>
        <time>2017-04-08T12:48:26Z</time>
      </trkpt>
      <trkpt lat="43.07075" lon="1.35655">
        <ele>358.71</ele>
        <time>2017-04-08T12:48:37Z</time>
      </trkpt>
      <trkpt lat="43.07071" lon="1.35645">
        <ele>356.79</ele>
        <time>2017-04-08T12:48:49Z</time>
      </trkpt>
      <trkpt lat="43.0707" lon="1.35644">
        <ele>356.79</ele>
        <time>2017-04-08T12:48:50Z</time>
      </trkpt>
      <trkpt lat="43.07066" lon="1.35624">
        <ele>354.86</ele>
        <time>2017-04-08T12:49:04Z</time>
      </trkpt>
      <trkpt lat="43.07061" lon="1.35613">
        <ele>354.38</ele>
        <time>2017-04-08T12:49:19Z</time>
      </trkpt>
      <trkpt lat="43.07059" lon="1.3561">
        <ele>352.94</ele>
        <time>2017-04-08T12:50:20Z</time>
      </trkpt>
      <trkpt lat="43.07058" lon="1.35608">
        <ele>351.5</ele>
        <time>2017-04-08T12:52:00Z</time>
      </trkpt>
      <trkpt lat="43.07062" lon="1.35599">
        <ele>350.54</ele>
        <time>2017-04-08T12:52:13Z</time>
      </trkpt>
      <trkpt lat="43.07061" lon="1.35591">
        <ele>350.54</ele>
        <time>2017-04-08T12:52:33Z</time>
      </trkpt>
      <trkpt lat="43.07058" lon="1.35581">
        <ele>350.54</ele>
        <time>2017-04-08T12:53:04Z</time>
      </trkpt>
      <trkpt lat="43.07066" lon="1.35559">
        <ele>350.54</ele>
        <time>2017-04-08T12:53:35Z</time>
      </trkpt>
      <trkpt lat="43.07073" lon="1.35545">
        <ele>341.89</ele>
        <time>2017-04-08T12:55:10Z</time>
      </trkpt>
      <trkpt lat="43.07079" lon="1.35552">
        <ele>341.89</ele>
        <time>2017-04-08T12:55:33Z</time>
      </trkpt>
      <trkpt lat="43.07074" lon="1.35533">
        <ele>339.96</ele>
        <time>2017-04-08T12:55:51Z</time>
      </trkpt>
      <trkpt lat="43.07077" lon="1.35517">
        <ele>339.48</ele>
        <time>2017-04-08T12:55:58Z</time>
      </trkpt>
      <trkpt lat="43.07086" lon="1.35497">
        <ele>339</ele>
        <time>2017-04-08T12:56:15Z</time>
      </trkpt>
      <trkpt lat="43.07103" lon="1.35477">
        <ele>340.92</ele>
        <time>2017-04-08T12:56:27Z</time>
      </trkpt>
      <trkpt lat="43.07112" lon="1.35469">
        <ele>341.89</ele>
        <time>2017-04-08T12:56:41Z</time>
      </trkpt>
      <trkpt lat="43.07119" lon="1.35457">
        <ele>341.89</ele>
        <time>2017-04-08T12:57:07Z</time>
      </trkpt>
      <trkpt lat="43.07121" lon="1.35458">
        <ele>342.37</ele>
        <time>2017-04-08T12:57:25Z</time>
      </trkpt>
      <trkpt lat="43.07146" lon="1.35469">
        <ele>351.02</ele>
        <time>2017-04-08T12:58:54Z</time>
      </trkpt>
      <trkpt lat="43.07146" lon="1.35468">
        <ele>346.21</ele>
        <time>2017-04-08T12:58:55Z</time>
      </trkpt>
      <trkpt lat="43.07147" lon="1.35479">
        <ele>346.21</ele>
        <time>2017-04-08T12:58:56Z</time>
      </trkpt>
      <trkpt lat="43.07155" lon="1.3551">
        <ele>346.21</ele>
        <time>2017-04-08T12:59:13Z</time>
      </trkpt>
      <trkpt lat="43.0716" lon="1.35508">
        <ele>348.62</ele>
        <time>2017-04-08T12:59:22Z</time>
      </trkpt>
      <trkpt lat="43.07163" lon="1.35507">
        <ele>349.58</ele>
        <time>2017-04-08T12:59:26Z</time>
      </trkpt>
      <trkpt lat="43.0717" lon="1.35493">
        <ele>350.54</ele>
        <time>2017-04-08T12:59:47Z</time>
      </trkpt>
      <trkpt lat="43.07173" lon="1.35491">
        <ele>351.98</ele>
        <time>2017-04-08T12:59:50Z</time>
      </trkpt>
      <trkpt lat="43.07179" lon="1.35492">
        <ele>353.42</ele>
        <time>2017-04-08T12:59:54Z</time>
      </trkpt>
      <trkpt lat="43.07193" lon="1.35505">
        <ele>357.75</ele>
        <time>2017-04-08T13:00:13Z</time>
      </trkpt>
      <trkpt lat="43.07193" lon="1.35506">
        <ele>357.75</ele>
        <time>2017-04-08T13:00:14Z</time>
      </trkpt>
      <trkpt lat="43.07202" lon="1.35503">
        <ele>357.27</ele>
        <time>2017-04-08T13:00:31Z</time>
      </trkpt>
      <trkpt lat="43.07203" lon="1.35501">
        <ele>359.19</ele>
        <time>2017-04-08T13:00:33Z</time>
      </trkpt>
      <trkpt lat="43.07205" lon="1.35498">
        <ele>357.75</ele>
        <time>2017-04-08T13:00:36Z</time>
      </trkpt>
      <trkpt lat="43.07211" lon="1.35491">
        <ele>360.63</ele>
        <time>2017-04-08T13:00:46Z</time>
      </trkpt>
      <trkpt lat="43.07218" lon="1.35491">
        <ele>362.07</ele>
        <time>2017-04-08T13:00:51Z</time>
      </trkpt>
      <trkpt lat="43.07229" lon="1.3548">
        <ele>363.52</ele>
        <time>2017-04-08T13:01:14Z</time>
      </trkpt>
      <trkpt lat="43.07231" lon="1.35481">
        <ele>364.96</ele>
        <time>2017-04-08T13:01:16Z</time>
      </trkpt>
      <trkpt lat="43.07244" lon="1.35481">
        <ele>368.32</ele>
        <time>2017-04-08T13:01:29Z</time>
      </trkpt>
      <trkpt lat="43.0724" lon="1.35477">
        <ele>371.21</ele>
        <time>2017-04-08T13:01:43Z</time>
      </trkpt>
      <trkpt lat="43.0724" lon="1.35456">
        <ele>372.65</ele>
        <time>2017-04-08T13:02:06Z</time>
      </trkpt>
      <trkpt lat="43.07252" lon="1.3545">
        <ele>375.53</ele>
        <time>2017-04-08T13:02:33Z</time>
      </trkpt>
      <trkpt lat="43.07263" lon="1.35449">
        <ele>376.97</ele>
        <time>2017-04-08T13:02:40Z</time>
      </trkpt>
      <trkpt lat="43.07276" lon="1.35485">
        <ele>377.94</ele>
        <time>2017-04-08T13:02:58Z</time>
      </trkpt>
      <trkpt lat="43.07278" lon="1.35478">
        <ele>380.34</ele>
        <time>2017-04-08T13:03:09Z</time>
      </trkpt>
      <trkpt lat="43.07279" lon="1.35477">
        <ele>378.9</ele>
        <time>2017-04-08T13:03:11Z</time>
      </trkpt>
      <trkpt lat="43.0728" lon="1.35473">
        <ele>380.34</ele>
        <time>2017-04-08T13:03:13Z</time>
      </trkpt>
      <trkpt lat="43.07284" lon="1.35473">
        <ele>380.34</ele>
        <time>2017-04-08T13:03:33Z</time>
      </trkpt>
      <trkpt lat="43.07285" lon="1.35474">
        <ele>382.74</ele>
        <time>2017-04-08T13:03:35Z</time>
      </trkpt>
      <trkpt lat="43.07295" lon="1.35481">
        <ele>386.59</ele>
        <time>2017-04-08T13:03:54Z</time>
      </trkpt>
      <trkpt lat="43.07295" lon="1.35479">
        <ele>387.55</ele>
        <time>2017-04-08T13:03:56Z</time>
      </trkpt>
      <trkpt lat="43.07297" lon="1.35454">
        <ele>388.99</ele>
        <time>2017-04-08T13:04:10Z</time>
      </trkpt>
      <trkpt lat="43.07294" lon="1.35428">
        <ele>392.84</ele>
        <time>2017-04-08T13:04:25Z</time>
      </trkpt>
      <trkpt lat="43.07294" lon="1.35397">
        <ele>393.32</ele>
        <time>2017-04-08T13:04:44Z</time>
      </trkpt>
      <trkpt lat="43.07294" lon="1.35395">
        <ele>395.24</ele>
        <time>2017-04-08T13:04:45Z</time>
      </trkpt>
      <trkpt lat="43.07314" lon="1.35404">
        <ele>398.12</ele>
        <time>2017-04-08T13:05:06Z</time>
      </trkpt>
      <trkpt lat="43.0732" lon="1.354">
        <ele>401.01</ele>
        <time>2017-04-08T13:05:16Z</time>
      </trkpt>
      <trkpt lat="43.07323" lon="1.35397">
        <ele>402.93</ele>
        <time>2017-04-08T13:05:23Z</time>
      </trkpt>
      <trkpt lat="43.07325" lon="1.35396">
        <ele>404.37</ele>
        <time>2017-04-08T13:05:26Z</time>
      </trkpt>
      <trkpt lat="43.07334" lon="1.35399">
        <ele>407.74</ele>
        <time>2017-04-08T13:05:38Z</time>
      </trkpt>
      <trkpt lat="43.07344" lon="1.35394">
        <ele>409.66</ele>
        <time>2017-04-08T13:05:57Z</time>
      </trkpt>
      <trkpt lat="43.07338" lon="1.35372">
        <ele>413.02</ele>
        <time>2017-04-08T13:06:08Z</time>
      </trkpt>
      <trkpt lat="43.07338" lon="1.35368">
        <ele>411.58</ele>
        <time>2017-04-08T13:06:09Z</time>
      </trkpt>
      <trkpt lat="43.07336" lon="1.35361">
        <ele>413.5</ele>
        <time>2017-04-08T13:06:12Z</time>
      </trkpt>
      <trkpt lat="43.07332" lon="1.35339">
        <ele>413.02</ele>
        <time>2017-04-08T13:06:26Z</time>
      </trkpt>
      <trkpt lat="43.07332" lon="1.35349">
        <ele>414.47</ele>
        <time>2017-04-08T13:06:46Z</time>
      </trkpt>
      <trkpt lat="43.07329" lon="1.35344">
        <ele>416.39</ele>
        <time>2017-04-08T13:06:52Z</time>
      </trkpt>
      <trkpt lat="43.07329" lon="1.35332">
        <ele>418.79</ele>
        <time>2017-04-08T13:07:00Z</time>
      </trkpt>
      <trkpt lat="43.07365" lon="1.35372">
        <ele>421.68</ele>
        <time>2017-04-08T13:07:16Z</time>
      </trkpt>
      <trkpt lat="43.07381" lon="1.35366">
        <ele>425.04</ele>
        <time>2017-04-08T13:07:30Z</time>
      </trkpt>
      <trkpt lat="43.07384" lon="1.35363">
        <ele>425.52</ele>
        <time>2017-04-08T13:07:35Z</time>
      </trkpt>
      <trkpt lat="43.07388" lon="1.35358">
        <ele>427.44</ele>
        <time>2017-04-08T13:07:47Z</time>
      </trkpt>
      <trkpt lat="43.07397" lon="1.35352">
        <ele>430.81</ele>
        <time>2017-04-08T13:07:59Z</time>
      </trkpt>
      <trkpt lat="43.07397" lon="1.35351">
        <ele>430.81</ele>
        <time>2017-04-08T13:08:00Z</time>
      </trkpt>
      <trkpt lat="43.07413" lon="1.35346">
        <ele>431.29</ele>
        <time>2017-04-08T13:08:26Z</time>
      </trkpt>
      <trkpt lat="43.07415" lon="1.35346">
        <ele>435.61</ele>
        <time>2017-04-08T13:08:40Z</time>
      </trkpt>
      <trkpt lat="43.07415" lon="1.35346">
        <ele>435.61</ele>
        <time>2017-04-08T13:08:41Z</time>
      </trkpt>
      <trkpt lat="43.07424" lon="1.35338">
        <ele>439.46</ele>
        <time>2017-04-08T13:09:03Z</time>
      </trkpt>
      <trkpt lat="43.07425" lon="1.35338">
        <ele>439.94</ele>
        <time>2017-04-08T13:09:05Z</time>
      </trkpt>
      <trkpt lat="43.0743" lon="1.35333">
        <ele>443.31</ele>
        <time>2017-04-08T13:09:16Z</time>
      </trkpt>
      <trkpt lat="43.07431" lon="1.35333">
        <ele>443.31</ele>
        <time>2017-04-08T13:09:17Z</time>
      </trkpt>
      <trkpt lat="43.07436" lon="1.35314">
        <ele>447.63</ele>
        <time>2017-04-08T13:09:53Z</time>
      </trkpt>
      <trkpt lat="43.07448" lon="1.35304">
        <ele>449.55</ele>
        <time>2017-04-08T13:10:18Z</time>
      </trkpt>
      <trkpt lat="43.07447" lon="1.35302">
        <ele>449.07</ele>
        <time>2017-04-08T13:10:23Z</time>
      </trkpt>
      <trkpt lat="43.07447" lon="1.35296">
        <ele>452.44</ele>
        <time>2017-04-08T13:10:42Z</time>
      </trkpt>
      <trkpt lat="43.07446" lon="1.35286">
        <ele>456.76</ele>
        <time>2017-04-08T13:10:59Z</time>
      </trkpt>
      <trkpt lat="43.0745" lon="1.35282">
        <ele>458.69</ele>
        <time>2017-04-08T13:11:20Z</time>
      </trkpt>
      <trkpt lat="43.07452" lon="1.35277">
        <ele>460.61</ele>
        <time>2017-04-08T13:11:25Z</time>
      </trkpt>
      <trkpt lat="43.07464" lon="1.3526">
        <ele>463.97</ele>
        <time>2017-04-08T13:11:42Z</time>
      </trkpt>
      <trkpt lat="43.07465" lon="1.35251">
        <ele>466.38</ele>
        <time>2017-04-08T13:12:03Z</time>
      </trkpt>
      <trkpt lat="43.07466" lon="1.35248">
        <ele>466.38</ele>
        <time>2017-04-08T13:12:08Z</time>
      </trkpt>
      <trkpt lat="43.07467" lon="1.3524">
        <ele>470.22</ele>
        <time>2017-04-08T13:12:18Z</time>
      </trkpt>
      <trkpt lat="43.07463" lon="1.35235">
        <ele>474.07</ele>
        <time>2017-04-08T13:12:35Z</time>
      </trkpt>
      <trkpt lat="43.07464" lon="1.3523">
        <ele>475.99</ele>
        <time>2017-04-08T13:12:58Z</time>
      </trkpt>
      <trkpt lat="43.07473" lon="1.35229">
        <ele>475.99</ele>
        <time>2017-04-08T13:13:10Z</time>
      </trkpt>
      <trkpt lat="43.07491" lon="1.35228">
        <ele>475.99</ele>
        <time>2017-04-08T13:13:29Z</time>
      </trkpt>
      <trkpt lat="43.0749" lon="1.35227">
        <ele>475.51</ele>
        <time>2017-04-08T13:17:06Z</time>
      </trkpt>
      <trkpt lat="43.07473" lon="1.35226">
        <ele>474.55</ele>
        <time>2017-04-08T13:17:26Z</time>
      </trkpt>
      <trkpt lat="43.07471" lon="1.35227">
        <ele>475.99</ele>
        <time>2017-04-08T13:17:28Z</time>
      </trkpt>
      <trkpt lat="43.07451" lon="1.35232">
        <ele>475.51</ele>
        <time>2017-04-08T13:17:46Z</time>
      </trkpt>
      <trkpt lat="43.07436" lon="1.35252">
        <ele>473.11</ele>
        <time>2017-04-08T13:18:04Z</time>
      </trkpt>
      <trkpt lat="43.07434" lon="1.35258">
        <ele>470.7</ele>
        <time>2017-04-08T13:18:10Z</time>
      </trkpt>
      <trkpt lat="43.07428" lon="1.35271">
        <ele>467.82</ele>
        <time>2017-04-08T13:18:21Z</time>
      </trkpt>
      <trkpt lat="43.07428" lon="1.35274">
        <ele>466.38</ele>
        <time>2017-04-08T13:18:24Z</time>
      </trkpt>
      <trkpt lat="43.07428" lon="1.35284">
        <ele>465.42</ele>
        <time>2017-04-08T13:18:31Z</time>
      </trkpt>
      <trkpt lat="43.07417" lon="1.35303">
        <ele>463.01</ele>
        <time>2017-04-08T13:18:48Z</time>
      </trkpt>
      <trkpt lat="43.07411" lon="1.35314">
        <ele>462.53</ele>
        <time>2017-04-08T13:18:56Z</time>
      </trkpt>
      <trkpt lat="43.0741" lon="1.35318">
        <ele>461.57</ele>
        <time>2017-04-08T13:18:58Z</time>
      </trkpt>
      <trkpt lat="43.07408" lon="1.35326">
        <ele>461.57</ele>
        <time>2017-04-08T13:19:16Z</time>
      </trkpt>
      <trkpt lat="43.07405" lon="1.35332">
        <ele>463.01</ele>
        <time>2017-04-08T13:20:29Z</time>
      </trkpt>
      <trkpt lat="43.07406" lon="1.35342">
        <ele>461.09</ele>
        <time>2017-04-08T13:24:01Z</time>
      </trkpt>
      <trkpt lat="43.07399" lon="1.35333">
        <ele>463.01</ele>
        <time>2017-04-08T13:24:08Z</time>
      </trkpt>
      <trkpt lat="43.07386" lon="1.35331">
        <ele>463.97</ele>
        <time>2017-04-08T13:24:19Z</time>
      </trkpt>
      <trkpt lat="43.07377" lon="1.35336">
        <ele>463.97</ele>
        <time>2017-04-08T13:24:27Z</time>
      </trkpt>
      <trkpt lat="43.07373" lon="1.3534">
        <ele>462.05</ele>
        <time>2017-04-08T13:24:31Z</time>
      </trkpt>
      <trkpt lat="43.07366" lon="1.35349">
        <ele>460.61</ele>
        <time>2017-04-08T13:24:40Z</time>
      </trkpt>
      <trkpt lat="43.07364" lon="1.35354">
        <ele>459.17</ele>
        <time>2017-04-08T13:24:43Z</time>
      </trkpt>
      <trkpt lat="43.07361" lon="1.35357">
        <ele>459.17</ele>
        <time>2017-04-08T13:24:46Z</time>
      </trkpt>
      <trkpt lat="43.07353" lon="1.35363">
        <ele>458.21</ele>
        <time>2017-04-08T13:24:54Z</time>
      </trkpt>
      <trkpt lat="43.07344" lon="1.35373">
        <ele>456.28</ele>
        <time>2017-04-08T13:25:09Z</time>
      </trkpt>
      <trkpt lat="43.07344" lon="1.35376">
        <ele>456.28</ele>
        <time>2017-04-08T13:25:42Z</time>
      </trkpt>
      <trkpt lat="43.07342" lon="1.35377">
        <ele>457.24</ele>
        <time>2017-04-08T13:26:22Z</time>
      </trkpt>
      <trkpt lat="43.07335" lon="1.3537">
        <ele>455.8</ele>
        <time>2017-04-08T13:26:42Z</time>
      </trkpt>
      <trkpt lat="43.07321" lon="1.35362">
        <ele>455.32</ele>
        <time>2017-04-08T13:26:54Z</time>
      </trkpt>
      <trkpt lat="43.07319" lon="1.35359">
        <ele>456.76</ele>
        <time>2017-04-08T13:26:56Z</time>
      </trkpt>
      <trkpt lat="43.07318" lon="1.35355">
        <ele>456.76</ele>
        <time>2017-04-08T13:27:07Z</time>
      </trkpt>
      <trkpt lat="43.07317" lon="1.35354">
        <ele>456.76</ele>
        <time>2017-04-08T13:27:27Z</time>
      </trkpt>
      <trkpt lat="43.07317" lon="1.3536">
        <ele>456.76</ele>
        <time>2017-04-08T13:27:36Z</time>
      </trkpt>
      <trkpt lat="43.07315" lon="1.35362">
        <ele>454.84</ele>
        <time>2017-04-08T13:27:38Z</time>
      </trkpt>
      <trkpt lat="43.07314" lon="1.35363">
        <ele>454.36</ele>
        <time>2017-04-08T13:27:40Z</time>
      </trkpt>
      <trkpt lat="43.07308" lon="1.35368">
        <ele>453.88</ele>
        <time>2017-04-08T13:27:46Z</time>
      </trkpt>
      <trkpt lat="43.07301" lon="1.35367">
        <ele>452.44</ele>
        <time>2017-04-08T13:27:51Z</time>
      </trkpt>
      <trkpt lat="43.07298" lon="1.35361">
        <ele>452.44</ele>
        <time>2017-04-08T13:28:04Z</time>
      </trkpt>
      <trkpt lat="43.07297" lon="1.35359">
        <ele>452.44</ele>
        <time>2017-04-08T13:28:31Z</time>
      </trkpt>
      <trkpt lat="43.073" lon="1.3536">
        <ele>453.88</ele>
        <time>2017-04-08T13:28:40Z</time>
      </trkpt>
      <trkpt lat="43.07312" lon="1.35356">
        <ele>455.8</ele>
        <time>2017-04-08T13:28:54Z</time>
      </trkpt>
      <trkpt lat="43.07313" lon="1.35355">
        <ele>454.36</ele>
        <time>2017-04-08T13:28:56Z</time>
      </trkpt>
      <trkpt lat="43.07315" lon="1.35353">
        <ele>456.76</ele>
        <time>2017-04-08T13:28:59Z</time>
      </trkpt>
      <trkpt lat="43.07315" lon="1.35352">
        <ele>456.76</ele>
        <time>2017-04-08T13:29:01Z</time>
      </trkpt>
      <trkpt lat="43.0731" lon="1.35348">
        <ele>457.24</ele>
        <time>2017-04-08T13:29:15Z</time>
      </trkpt>
      <trkpt lat="43.07308" lon="1.35346">
        <ele>456.76</ele>
        <time>2017-04-08T13:29:19Z</time>
      </trkpt>
      <trkpt lat="43.07302" lon="1.35351">
        <ele>455.8</ele>
        <time>2017-04-08T13:29:34Z</time>
      </trkpt>
      <trkpt lat="43.07301" lon="1.3535">
        <ele>454.84</ele>
        <time>2017-04-08T13:31:05Z</time>
      </trkpt>
      <trkpt lat="43.073" lon="1.35344">
        <ele>456.28</ele>
        <time>2017-04-08T13:31:21Z</time>
      </trkpt>
      <trkpt lat="43.07309" lon="1.35347">
        <ele>456.76</ele>
        <time>2017-04-08T13:31:35Z</time>
      </trkpt>
      <trkpt lat="43.07325" lon="1.35363">
        <ele>456.76</ele>
        <time>2017-04-08T13:31:54Z</time>
      </trkpt>
      <trkpt lat="43.07328" lon="1.35364">
        <ele>456.76</ele>
        <time>2017-04-08T13:31:57Z</time>
      </trkpt>
      <trkpt lat="43.07333" lon="1.35371">
        <ele>456.76</ele>
        <time>2017-04-08T13:32:03Z</time>
      </trkpt>
      <trkpt lat="43.07337" lon="1.35375">
        <ele>455.32</ele>
        <time>2017-04-08T13:32:13Z</time>
      </trkpt>
      <trkpt lat="43.07341" lon="1.35383">
        <ele>453.88</ele>
        <time>2017-04-08T13:32:25Z</time>
      </trkpt>
      <trkpt lat="43.0734" lon="1.35385">
        <ele>452.92</ele>
        <time>2017-04-08T13:32:26Z</time>
      </trkpt>
      <trkpt lat="43.07331" lon="1.35396">
        <ele>452.92</ele>
        <time>2017-04-08T13:32:36Z</time>
      </trkpt>
      <trkpt lat="43.07324" lon="1.35404">
        <ele>449.55</ele>
        <time>2017-04-08T13:32:45Z</time>
      </trkpt>
      <trkpt lat="43.07321" lon="1.35411">
        <ele>448.59</ele>
        <time>2017-04-08T13:32:51Z</time>
      </trkpt>
      <trkpt lat="43.07318" lon="1.35411">
        <ele>447.15</ele>
        <time>2017-04-08T13:32:54Z</time>
      </trkpt>
      <trkpt lat="43.07303" lon="1.3541">
        <ele>443.79</ele>
        <time>2017-04-08T13:33:11Z</time>
      </trkpt>
      <trkpt lat="43.07299" lon="1.35413">
        <ele>442.34</ele>
        <time>2017-04-08T13:33:16Z</time>
      </trkpt>
      <trkpt lat="43.07295" lon="1.35419">
        <ele>440.9</ele>
        <time>2017-04-08T13:33:21Z</time>
      </trkpt>
      <trkpt lat="43.07288" lon="1.35425">
        <ele>437.54</ele>
        <time>2017-04-08T13:33:32Z</time>
      </trkpt>
      <trkpt lat="43.07288" lon="1.35426">
        <ele>434.65</ele>
        <time>2017-04-08T13:39:38Z</time>
      </trkpt>
      <trkpt lat="43.07288" lon="1.35426">
        <ele>440.9</ele>
        <time>2017-04-08T13:39:40Z</time>
      </trkpt>
      <trkpt lat="43.07288" lon="1.35427">
        <ele>438.02</ele>
        <time>2017-04-08T13:39:41Z</time>
      </trkpt>
      <trkpt lat="43.07286" lon="1.35428">
        <ele>437.06</ele>
        <time>2017-04-08T13:39:46Z</time>
      </trkpt>
      <trkpt lat="43.07273" lon="1.35429">
        <ele>433.69</ele>
        <time>2017-04-08T13:40:00Z</time>
      </trkpt>
      <trkpt lat="43.07265" lon="1.35431">
        <ele>433.21</ele>
        <time>2017-04-08T13:40:17Z</time>
      </trkpt>
      <trkpt lat="43.07261" lon="1.35434">
        <ele>432.25</ele>
        <time>2017-04-08T13:40:30Z</time>
      </trkpt>
      <trkpt lat="43.0726" lon="1.35435">
        <ele>432.25</ele>
        <time>2017-04-08T13:40:31Z</time>
      </trkpt>
      <trkpt lat="43.07254" lon="1.35435">
        <ele>431.77</ele>
        <time>2017-04-08T13:40:45Z</time>
      </trkpt>
      <trkpt lat="43.07252" lon="1.35442">
        <ele>429.85</ele>
        <time>2017-04-08T13:41:16Z</time>
      </trkpt>
      <trkpt lat="43.07251" lon="1.35443">
        <ele>429.85</ele>
        <time>2017-04-08T13:41:17Z</time>
      </trkpt>
      <trkpt lat="43.07239" lon="1.35451">
        <ele>426.96</ele>
        <time>2017-04-08T13:41:30Z</time>
      </trkpt>
      <trkpt lat="43.07227" lon="1.3545">
        <ele>425.04</ele>
        <time>2017-04-08T13:41:44Z</time>
      </trkpt>
      <trkpt lat="43.07213" lon="1.35458">
        <ele>425.52</ele>
        <time>2017-04-08T13:41:57Z</time>
      </trkpt>
      <trkpt lat="43.07212" lon="1.35458">
        <ele>425.52</ele>
        <time>2017-04-08T13:41:58Z</time>
      </trkpt>
      <trkpt lat="43.07208" lon="1.35459">
        <ele>424.08</ele>
        <time>2017-04-08T13:42:01Z</time>
      </trkpt>
      <trkpt lat="43.07199" lon="1.3546">
        <ele>423.6</ele>
        <time>2017-04-08T13:42:08Z</time>
      </trkpt>
      <trkpt lat="43.07198" lon="1.3546">
        <ele>423.6</ele>
        <time>2017-04-08T13:42:09Z</time>
      </trkpt>
      <trkpt lat="43.07183" lon="1.35467">
        <ele>420.23</ele>
        <time>2017-04-08T13:42:23Z</time>
      </trkpt>
      <trkpt lat="43.07175" lon="1.35464">
        <ele>419.27</ele>
        <time>2017-04-08T13:42:36Z</time>
      </trkpt>
      <trkpt lat="43.07173" lon="1.35461">
        <ele>418.31</ele>
        <time>2017-04-08T13:42:41Z</time>
      </trkpt>
      <trkpt lat="43.07168" lon="1.35456">
        <ele>417.83</ele>
        <time>2017-04-08T13:42:47Z</time>
      </trkpt>
      <trkpt lat="43.07162" lon="1.35452">
        <ele>416.87</ele>
        <time>2017-04-08T13:42:54Z</time>
      </trkpt>
      <trkpt lat="43.07157" lon="1.35439">
        <ele>418.31</ele>
        <time>2017-04-08T13:43:05Z</time>
      </trkpt>
      <trkpt lat="43.07152" lon="1.35434">
        <ele>420.71</ele>
        <time>2017-04-08T13:43:14Z</time>
      </trkpt>
      <trkpt lat="43.0714" lon="1.35433">
        <ele>422.16</ele>
        <time>2017-04-08T13:43:24Z</time>
      </trkpt>
      <trkpt lat="43.07132" lon="1.35446">
        <ele>424.08</ele>
        <time>2017-04-08T13:43:35Z</time>
      </trkpt>
      <trkpt lat="43.07126" lon="1.35452">
        <ele>425.04</ele>
        <time>2017-04-08T13:43:48Z</time>
      </trkpt>
      <trkpt lat="43.07121" lon="1.35456">
        <ele>427.92</ele>
        <time>2017-04-08T13:44:03Z</time>
      </trkpt>
      <trkpt lat="43.07112" lon="1.35462">
        <ele>428.89</ele>
        <time>2017-04-08T13:44:15Z</time>
      </trkpt>
      <trkpt lat="43.07111" lon="1.35463">
        <ele>427.44</ele>
        <time>2017-04-08T13:44:18Z</time>
      </trkpt>
      <trkpt lat="43.07109" lon="1.35469">
        <ele>424.56</ele>
        <time>2017-04-08T13:44:26Z</time>
      </trkpt>
      <trkpt lat="43.07108" lon="1.35472">
        <ele>422.64</ele>
        <time>2017-04-08T13:44:40Z</time>
      </trkpt>
      <trkpt lat="43.07106" lon="1.35475">
        <ele>421.19</ele>
        <time>2017-04-08T13:44:55Z</time>
      </trkpt>
      <trkpt lat="43.07105" lon="1.35482">
        <ele>418.31</ele>
        <time>2017-04-08T13:45:08Z</time>
      </trkpt>
      <trkpt lat="43.07104" lon="1.35485">
        <ele>417.83</ele>
        <time>2017-04-08T13:45:18Z</time>
      </trkpt>
      <trkpt lat="43.07098" lon="1.35487">
        <ele>417.35</ele>
        <time>2017-04-08T13:45:32Z</time>
      </trkpt>
      <trkpt lat="43.07096" lon="1.35491">
        <ele>416.87</ele>
        <time>2017-04-08T13:45:48Z</time>
      </trkpt>
      <trkpt lat="43.07096" lon="1.3549">
        <ele>416.87</ele>
        <time>2017-04-08T13:46:19Z</time>
      </trkpt>
      <trkpt lat="43.07093" lon="1.35493">
        <ele>416.87</ele>
        <time>2017-04-08T13:46:38Z</time>
      </trkpt>
      <trkpt lat="43.07092" lon="1.35503">
        <ele>413.5</ele>
        <time>2017-04-08T13:46:49Z</time>
      </trkpt>
      <trkpt lat="43.07091" lon="1.35507">
        <ele>412.06</ele>
        <time>2017-04-08T13:46:54Z</time>
      </trkpt>
      <trkpt lat="43.07079" lon="1.3551">
        <ele>409.66</ele>
        <time>2017-04-08T13:47:05Z</time>
      </trkpt>
      <trkpt lat="43.07068" lon="1.35512">
        <ele>407.74</ele>
        <time>2017-04-08T13:47:16Z</time>
      </trkpt>
      <trkpt lat="43.07062" lon="1.35514">
        <ele>406.29</ele>
        <time>2017-04-08T13:47:20Z</time>
      </trkpt>
      <trkpt lat="43.07055" lon="1.35513">
        <ele>405.33</ele>
        <time>2017-04-08T13:47:27Z</time>
      </trkpt>
      <trkpt lat="43.07043" lon="1.35517">
        <ele>403.89</ele>
        <time>2017-04-08T13:47:41Z</time>
      </trkpt>
      <trkpt lat="43.07034" lon="1.35525">
        <ele>401.97</ele>
        <time>2017-04-08T13:47:54Z</time>
      </trkpt>
      <trkpt lat="43.07014" lon="1.3553">
        <ele>402.45</ele>
        <time>2017-04-08T13:48:10Z</time>
      </trkpt>
      <trkpt lat="43.07013" lon="1.35531">
        <ele>402.45</ele>
        <time>2017-04-08T13:48:11Z</time>
      </trkpt>
      <trkpt lat="43.07006" lon="1.35535">
        <ele>399.08</ele>
        <time>2017-04-08T13:48:21Z</time>
      </trkpt>
      <trkpt lat="43.07011" lon="1.35539">
        <ele>399.08</ele>
        <time>2017-04-08T13:48:55Z</time>
      </trkpt>
      <trkpt lat="43.06996" lon="1.35551">
        <ele>395.24</ele>
        <time>2017-04-08T13:49:42Z</time>
      </trkpt>
      <trkpt lat="43.07008" lon="1.35548">
        <ele>392.84</ele>
        <time>2017-04-08T13:50:14Z</time>
      </trkpt>
      <trkpt lat="43.07018" lon="1.35545">
        <ele>391.39</ele>
        <time>2017-04-08T13:50:26Z</time>
      </trkpt>
      <trkpt lat="43.07033" lon="1.35542">
        <ele>388.99</ele>
        <time>2017-04-08T13:50:39Z</time>
      </trkpt>
      <trkpt lat="43.07042" lon="1.35544">
        <ele>387.55</ele>
        <time>2017-04-08T13:50:46Z</time>
      </trkpt>
      <trkpt lat="43.07041" lon="1.35552">
        <ele>386.59</ele>
        <time>2017-04-08T13:50:51Z</time>
      </trkpt>
      <trkpt lat="43.07034" lon="1.35561">
        <ele>385.15</ele>
        <time>2017-04-08T13:50:59Z</time>
      </trkpt>
      <trkpt lat="43.07033" lon="1.35563">
        <ele>384.66</ele>
        <time>2017-04-08T13:51:01Z</time>
      </trkpt>
      <trkpt lat="43.07018" lon="1.35567">
        <ele>383.7</ele>
        <time>2017-04-08T13:51:15Z</time>
      </trkpt>
      <trkpt lat="43.07016" lon="1.35567">
        <ele>383.22</ele>
        <time>2017-04-08T13:51:17Z</time>
      </trkpt>
      <trkpt lat="43.0701" lon="1.35571">
        <ele>382.26</ele>
        <time>2017-04-08T13:51:29Z</time>
      </trkpt>
      <trkpt lat="43.07006" lon="1.35574">
        <ele>381.78</ele>
        <time>2017-04-08T13:51:35Z</time>
      </trkpt>
      <trkpt lat="43.07" lon="1.35583">
        <ele>379.86</ele>
        <time>2017-04-08T13:51:43Z</time>
      </trkpt>
      <trkpt lat="43.06999" lon="1.35591">
        <ele>376.97</ele>
        <time>2017-04-08T13:51:52Z</time>
      </trkpt>
      <trkpt lat="43.07003" lon="1.35607">
        <ele>374.09</ele>
        <time>2017-04-08T13:52:06Z</time>
      </trkpt>
      <trkpt lat="43.07007" lon="1.35616">
        <ele>372.65</ele>
        <time>2017-04-08T13:52:18Z</time>
      </trkpt>
      <trkpt lat="43.0701" lon="1.35637">
        <ele>371.21</ele>
        <time>2017-04-08T13:52:30Z</time>
      </trkpt>
      <trkpt lat="43.07014" lon="1.35654">
        <ele>368.32</ele>
        <time>2017-04-08T13:52:43Z</time>
      </trkpt>
      <trkpt lat="43.07016" lon="1.35665">
        <ele>366.88</ele>
        <time>2017-04-08T13:52:53Z</time>
      </trkpt>
      <trkpt lat="43.07015" lon="1.35673">
        <ele>365.44</ele>
        <time>2017-04-08T13:53:05Z</time>
      </trkpt>
      <trkpt lat="43.07013" lon="1.35674">
        <ele>365.44</ele>
        <time>2017-04-08T13:53:14Z</time>
      </trkpt>
      <trkpt lat="43.07007" lon="1.35677">
        <ele>365.44</ele>
        <time>2017-04-08T13:53:19Z</time>
      </trkpt>
      <trkpt lat="43.07002" lon="1.35678">
        <ele>366.88</ele>
        <time>2017-04-08T13:53:23Z</time>
      </trkpt>
      <trkpt lat="43.06985" lon="1.35686">
        <ele>368.32</ele>
        <time>2017-04-08T13:53:40Z</time>
      </trkpt>
      <trkpt lat="43.06969" lon="1.35694">
        <ele>369.76</ele>
        <time>2017-04-08T13:53:54Z</time>
      </trkpt>
      <trkpt lat="43.06957" lon="1.35699">
        <ele>370.24</ele>
        <time>2017-04-08T13:54:05Z</time>
      </trkpt>
      <trkpt lat="43.0694" lon="1.35707">
        <ele>371.21</ele>
        <time>2017-04-08T13:54:21Z</time>
      </trkpt>
      <trkpt lat="43.06925" lon="1.35712">
        <ele>370.73</ele>
        <time>2017-04-08T13:54:34Z</time>
      </trkpt>
      <trkpt lat="43.06916" lon="1.35716">
        <ele>370.73</ele>
        <time>2017-04-08T13:54:40Z</time>
      </trkpt>
      <trkpt lat="43.06904" lon="1.35727">
        <ele>365.92</ele>
        <time>2017-04-08T14:33:33Z</time>
      </trkpt>
      <trkpt lat="43.06903" lon="1.35736">
        <ele>367.84</ele>
        <time>2017-04-08T14:34:20Z</time>
      </trkpt>
      <trkpt lat="43.06902" lon="1.35757">
        <ele>370.24</ele>
        <time>2017-04-08T14:34:35Z</time>
      </trkpt>
      <trkpt lat="43.06905" lon="1.35768">
        <ele>371.69</ele>
        <time>2017-04-08T14:34:48Z</time>
      </trkpt>
      <trkpt lat="43.0691" lon="1.35768">
        <ele>372.17</ele>
        <time>2017-04-08T14:35:02Z</time>
      </trkpt>
      <trkpt lat="43.06922" lon="1.35777">
        <ele>375.05</ele>
        <time>2017-04-08T14:35:19Z</time>
      </trkpt>
      <trkpt lat="43.0693" lon="1.35785">
        <ele>376.01</ele>
        <time>2017-04-08T14:35:39Z</time>
      </trkpt>
      <trkpt lat="43.06933" lon="1.3579">
        <ele>377.45</ele>
        <time>2017-04-08T14:36:10Z</time>
      </trkpt>
      <trkpt lat="43.06922" lon="1.35791">
        <ele>379.86</ele>
        <time>2017-04-08T14:36:28Z</time>
      </trkpt>
      <trkpt lat="43.06911" lon="1.35799">
        <ele>382.26</ele>
        <time>2017-04-08T14:36:39Z</time>
      </trkpt>
      <trkpt lat="43.06895" lon="1.35808">
        <ele>385.15</ele>
        <time>2017-04-08T14:36:57Z</time>
      </trkpt>
      <trkpt lat="43.06879" lon="1.35823">
        <ele>388.51</ele>
        <time>2017-04-08T14:37:18Z</time>
      </trkpt>
      <trkpt lat="43.06863" lon="1.35837">
        <ele>391.87</ele>
        <time>2017-04-08T14:37:35Z</time>
      </trkpt>
      <trkpt lat="43.06855" lon="1.35843">
        <ele>393.32</ele>
        <time>2017-04-08T14:37:41Z</time>
      </trkpt>
      <trkpt lat="43.06844" lon="1.35862">
        <ele>396.2</ele>
        <time>2017-04-08T14:37:59Z</time>
      </trkpt>
      <trkpt lat="43.06841" lon="1.35867">
        <ele>397.64</ele>
        <time>2017-04-08T14:38:05Z</time>
      </trkpt>
      <trkpt lat="43.06835" lon="1.35877">
        <ele>400.05</ele>
        <time>2017-04-08T14:38:27Z</time>
      </trkpt>
      <trkpt lat="43.0682" lon="1.35896">
        <ele>402.93</ele>
        <time>2017-04-08T14:38:45Z</time>
      </trkpt>
      <trkpt lat="43.06812" lon="1.3591">
        <ele>406.29</ele>
        <time>2017-04-08T14:39:01Z</time>
      </trkpt>
      <trkpt lat="43.06812" lon="1.35911">
        <ele>406.29</ele>
        <time>2017-04-08T14:39:02Z</time>
      </trkpt>
      <trkpt lat="43.06817" lon="1.35923">
        <ele>408.22</ele>
        <time>2017-04-08T14:39:12Z</time>
      </trkpt>
      <trkpt lat="43.06821" lon="1.35927">
        <ele>410.14</ele>
        <time>2017-04-08T14:39:16Z</time>
      </trkpt>
      <trkpt lat="43.06815" lon="1.35938">
        <ele>410.14</ele>
        <time>2017-04-08T14:39:34Z</time>
      </trkpt>
      <trkpt lat="43.06814" lon="1.3594">
        <ele>410.62</ele>
        <time>2017-04-08T14:40:28Z</time>
      </trkpt>
      <trkpt lat="43.06815" lon="1.35944">
        <ele>411.58</ele>
        <time>2017-04-08T14:40:58Z</time>
      </trkpt>
      <trkpt lat="43.06826" lon="1.35948">
        <ele>412.54</ele>
        <time>2017-04-08T14:41:07Z</time>
      </trkpt>
      <trkpt lat="43.06832" lon="1.35951">
        <ele>412.54</ele>
        <time>2017-04-08T14:41:12Z</time>
      </trkpt>
      <trkpt lat="43.06839" lon="1.35955">
        <ele>412.06</ele>
        <time>2017-04-08T14:41:17Z</time>
      </trkpt>
      <trkpt lat="43.06841" lon="1.35957">
        <ele>414.47</ele>
        <time>2017-04-08T14:41:19Z</time>
      </trkpt>
      <trkpt lat="43.06857" lon="1.35969">
        <ele>416.39</ele>
        <time>2017-04-08T14:41:37Z</time>
      </trkpt>
      <trkpt lat="43.06863" lon="1.35956">
        <ele>416.87</ele>
        <time>2017-04-08T14:41:58Z</time>
      </trkpt>
      <trkpt lat="43.06873" lon="1.35957">
        <ele>414.95</ele>
        <time>2017-04-08T14:42:24Z</time>
      </trkpt>
      <trkpt lat="43.06876" lon="1.35963">
        <ele>416.39</ele>
        <time>2017-04-08T14:42:31Z</time>
      </trkpt>
      <trkpt lat="43.06895" lon="1.35959">
        <ele>413.98</ele>
        <time>2017-04-08T14:42:51Z</time>
      </trkpt>
      <trkpt lat="43.06904" lon="1.35953">
        <ele>413.98</ele>
        <time>2017-04-08T14:43:11Z</time>
      </trkpt>
      <trkpt lat="43.06914" lon="1.35949">
        <ele>413.98</ele>
        <time>2017-04-08T14:43:29Z</time>
      </trkpt>
      <trkpt lat="43.06925" lon="1.3594">
        <ele>414.47</ele>
        <time>2017-04-08T14:43:50Z</time>
      </trkpt>
      <trkpt lat="43.06926" lon="1.35939">
        <ele>413.02</ele>
        <time>2017-04-08T14:43:53Z</time>
      </trkpt>
      <trkpt lat="43.06934" lon="1.35928">
        <ele>412.54</ele>
        <time>2017-04-08T14:44:14Z</time>
      </trkpt>
      <trkpt lat="43.06944" lon="1.3593">
        <ele>411.1</ele>
        <time>2017-04-08T14:44:32Z</time>
      </trkpt>
      <trkpt lat="43.06945" lon="1.35929">
        <ele>411.1</ele>
        <time>2017-04-08T14:45:21Z</time>
      </trkpt>
      <trkpt lat="43.06951" lon="1.35922">
        <ele>411.1</ele>
        <time>2017-04-08T14:45:45Z</time>
      </trkpt>
      <trkpt lat="43.06961" lon="1.35921">
        <ele>410.62</ele>
        <time>2017-04-08T14:46:04Z</time>
      </trkpt>
      <trkpt lat="43.06968" lon="1.35915">
        <ele>409.18</ele>
        <time>2017-04-08T14:46:22Z</time>
      </trkpt>
      <trkpt lat="43.06972" lon="1.35909">
        <ele>409.18</ele>
        <time>2017-04-08T14:46:39Z</time>
      </trkpt>
      <trkpt lat="43.06978" lon="1.35904">
        <ele>407.74</ele>
        <time>2017-04-08T14:47:07Z</time>
      </trkpt>
      <trkpt lat="43.06976" lon="1.359">
        <ele>409.18</ele>
        <time>2017-04-08T14:47:26Z</time>
      </trkpt>
      <trkpt lat="43.06978" lon="1.35898">
        <ele>408.7</ele>
        <time>2017-04-08T14:47:34Z</time>
      </trkpt>
      <trkpt lat="43.06996" lon="1.35903">
        <ele>408.7</ele>
        <time>2017-04-08T14:47:48Z</time>
      </trkpt>
      <trkpt lat="43.06999" lon="1.35903">
        <ele>409.66</ele>
        <time>2017-04-08T14:47:53Z</time>
      </trkpt>
      <trkpt lat="43.07003" lon="1.35904">
        <ele>408.7</ele>
        <time>2017-04-08T14:47:57Z</time>
      </trkpt>
      <trkpt lat="43.07007" lon="1.35906">
        <ele>408.7</ele>
        <time>2017-04-08T14:48:03Z</time>
      </trkpt>
      <trkpt lat="43.07009" lon="1.35908">
        <ele>408.7</ele>
        <time>2017-04-08T14:48:07Z</time>
      </trkpt>
      <trkpt lat="43.0702" lon="1.35905">
        <ele>408.22</ele>
        <time>2017-04-08T14:48:20Z</time>
      </trkpt>
      <trkpt lat="43.07022" lon="1.35911">
        <ele>408.22</ele>
        <time>2017-04-08T14:48:49Z</time>
      </trkpt>
      <trkpt lat="43.07025" lon="1.35908">
        <ele>409.18</ele>
        <time>2017-04-08T14:49:11Z</time>
      </trkpt>
      <trkpt lat="43.07027" lon="1.35893">
        <ele>406.29</ele>
        <time>2017-04-08T14:49:38Z</time>
      </trkpt>
      <trkpt lat="43.07029" lon="1.35887">
        <ele>404.37</ele>
        <time>2017-04-08T14:49:42Z</time>
      </trkpt>
      <trkpt lat="43.0704" lon="1.35877">
        <ele>401.97</ele>
        <time>2017-04-08T14:49:59Z</time>
      </trkpt>
      <trkpt lat="43.07051" lon="1.35876">
        <ele>401.97</ele>
        <time>2017-04-08T14:50:18Z</time>
      </trkpt>
      <trkpt lat="43.07055" lon="1.35875">
        <ele>401.97</ele>
        <time>2017-04-08T14:50:43Z</time>
      </trkpt>
      <trkpt lat="43.0706" lon="1.3588">
        <ele>401.97</ele>
        <time>2017-04-08T14:51:00Z</time>
      </trkpt>
      <trkpt lat="43.07061" lon="1.35882">
        <ele>401.97</ele>
        <time>2017-04-08T14:51:26Z</time>
      </trkpt>
      <trkpt lat="43.07064" lon="1.35883">
        <ele>402.93</ele>
        <time>2017-04-08T14:51:48Z</time>
      </trkpt>
      <trkpt lat="43.07064" lon="1.35886">
        <ele>401.49</ele>
        <time>2017-04-08T14:52:01Z</time>
      </trkpt>
      <trkpt lat="43.07067" lon="1.35889">
        <ele>402.93</ele>
        <time>2017-04-08T14:52:03Z</time>
      </trkpt>
      <trkpt lat="43.07076" lon="1.35909">
        <ele>405.33</ele>
        <time>2017-04-08T14:52:20Z</time>
      </trkpt>
      <trkpt lat="43.07078" lon="1.35928">
        <ele>407.74</ele>
        <time>2017-04-08T14:52:37Z</time>
      </trkpt>
      <trkpt lat="43.07087" lon="1.35951">
        <ele>408.7</ele>
        <time>2017-04-08T14:52:51Z</time>
      </trkpt>
      <trkpt lat="43.07091" lon="1.35957">
        <ele>410.14</ele>
        <time>2017-04-08T14:52:55Z</time>
      </trkpt>
      <trkpt lat="43.07091" lon="1.35963">
        <ele>410.62</ele>
        <time>2017-04-08T14:53:14Z</time>
      </trkpt>
      <trkpt lat="43.07091" lon="1.35963">
        <ele>402.93</ele>
        <time>2017-04-08T14:53:32Z</time>
      </trkpt>
      <trkpt lat="43.07091" lon="1.35963">
        <ele>411.1</ele>
        <time>2017-04-08T14:53:33Z</time>
      </trkpt>
      <trkpt lat="43.07101" lon="1.35964">
        <ele>409.66</ele>
        <time>2017-04-08T14:53:43Z</time>
      </trkpt>
      <trkpt lat="43.07103" lon="1.35967">
        <ele>408.7</ele>
        <time>2017-04-08T14:53:46Z</time>
      </trkpt>
      <trkpt lat="43.07105" lon="1.35969">
        <ele>408.7</ele>
        <time>2017-04-08T14:53:48Z</time>
      </trkpt>
      <trkpt lat="43.07115" lon="1.35972">
        <ele>406.77</ele>
        <time>2017-04-08T14:54:03Z</time>
      </trkpt>
      <trkpt lat="43.07115" lon="1.35969">
        <ele>405.33</ele>
        <time>2017-04-08T14:54:22Z</time>
      </trkpt>
      <trkpt lat="43.07123" lon="1.3595">
        <ele>402.45</ele>
        <time>2017-04-08T14:54:34Z</time>
      </trkpt>
      <trkpt lat="43.07124" lon="1.35948">
        <ele>402.45</ele>
        <time>2017-04-08T14:54:35Z</time>
      </trkpt>
      <trkpt lat="43.07131" lon="1.35927">
        <ele>399.57</ele>
        <time>2017-04-08T14:54:49Z</time>
      </trkpt>
      <trkpt lat="43.07133" lon="1.35923">
        <ele>398.12</ele>
        <time>2017-04-08T14:54:52Z</time>
      </trkpt>
      <trkpt lat="43.07135" lon="1.35919">
        <ele>396.68</ele>
        <time>2017-04-08T14:54:56Z</time>
      </trkpt>
      <trkpt lat="43.07134" lon="1.35905">
        <ele>394.28</ele>
        <time>2017-04-08T14:55:06Z</time>
      </trkpt>
      <trkpt lat="43.07132" lon="1.35897">
        <ele>393.32</ele>
        <time>2017-04-08T14:55:11Z</time>
      </trkpt>
      <trkpt lat="43.0713" lon="1.3589">
        <ele>392.84</ele>
        <time>2017-04-08T14:55:15Z</time>
      </trkpt>
      <trkpt lat="43.07121" lon="1.35868">
        <ele>388.99</ele>
        <time>2017-04-08T14:55:31Z</time>
      </trkpt>
      <trkpt lat="43.07116" lon="1.35852">
        <ele>385.15</ele>
        <time>2017-04-08T14:55:43Z</time>
      </trkpt>
      <trkpt lat="43.07113" lon="1.35849">
        <ele>385.15</ele>
        <time>2017-04-08T14:55:45Z</time>
      </trkpt>
      <trkpt lat="43.07104" lon="1.35838">
        <ele>383.7</ele>
        <time>2017-04-08T14:55:55Z</time>
      </trkpt>
      <trkpt lat="43.07089" lon="1.35828">
        <ele>382.74</ele>
        <time>2017-04-08T14:56:09Z</time>
      </trkpt>
      <trkpt lat="43.07075" lon="1.35811">
        <ele>380.34</ele>
        <time>2017-04-08T14:56:24Z</time>
      </trkpt>
      <trkpt lat="43.07068" lon="1.35806">
        <ele>379.38</ele>
        <time>2017-04-08T14:56:33Z</time>
      </trkpt>
      <trkpt lat="43.07056" lon="1.35799">
        <ele>377.94</ele>
        <time>2017-04-08T14:56:43Z</time>
      </trkpt>
      <trkpt lat="43.07049" lon="1.35797">
        <ele>377.94</ele>
        <time>2017-04-08T14:56:48Z</time>
      </trkpt>
      <trkpt lat="43.07042" lon="1.35794">
        <ele>379.38</ele>
        <time>2017-04-08T14:56:53Z</time>
      </trkpt>
      <trkpt lat="43.0703" lon="1.35793">
        <ele>377.94</ele>
        <time>2017-04-08T14:57:02Z</time>
      </trkpt>
      <trkpt lat="43.07017" lon="1.35787">
        <ele>377.94</ele>
        <time>2017-04-08T14:57:13Z</time>
      </trkpt>
      <trkpt lat="43.06998" lon="1.35783">
        <ele>378.42</ele>
        <time>2017-04-08T14:57:46Z</time>
      </trkpt>
      <trkpt lat="43.06993" lon="1.35782">
        <ele>379.86</ele>
        <time>2017-04-08T14:58:09Z</time>
      </trkpt>
      <trkpt lat="43.06989" lon="1.35782">
        <ele>378.42</ele>
        <time>2017-04-08T15:03:31Z</time>
      </trkpt>
      <trkpt lat="43.06987" lon="1.35782">
        <ele>378.42</ele>
        <time>2017-04-08T15:03:33Z</time>
      </trkpt>
      <trkpt lat="43.06984" lon="1.35782">
        <ele>378.9</ele>
        <time>2017-04-08T15:03:37Z</time>
      </trkpt>
      <trkpt lat="43.06976" lon="1.35782">
        <ele>378.9</ele>
        <time>2017-04-08T15:03:44Z</time>
      </trkpt>
      <trkpt lat="43.06961" lon="1.35782">
        <ele>378.42</ele>
        <time>2017-04-08T15:03:57Z</time>
      </trkpt>
      <trkpt lat="43.06945" lon="1.35782">
        <ele>378.42</ele>
        <time>2017-04-08T15:04:10Z</time>
      </trkpt>
      <trkpt lat="43.06941" lon="1.35782">
        <ele>378.42</ele>
        <time>2017-04-08T15:04:13Z</time>
      </trkpt>
      <trkpt lat="43.06938" lon="1.35781">
        <ele>378.42</ele>
        <time>2017-04-08T15:04:16Z</time>
      </trkpt>
      <trkpt lat="43.06927" lon="1.35777">
        <ele>375.53</ele>
        <time>2017-04-08T15:04:28Z</time>
      </trkpt>
      <trkpt lat="43.0692" lon="1.35774">
        <ele>374.57</ele>
        <time>2017-04-08T15:04:35Z</time>
      </trkpt>
      <trkpt lat="43.06905" lon="1.35767">
        <ele>372.17</ele>
        <time>2017-04-08T15:04:48Z</time>
      </trkpt>
      <trkpt lat="43.06904" lon="1.35766">
        <ele>371.21</ele>
        <time>2017-04-08T15:04:49Z</time>
      </trkpt>
      <trkpt lat="43.06901" lon="1.35757">
        <ele>369.76</ele>
        <time>2017-04-08T15:04:55Z</time>
      </trkpt>
      <trkpt lat="43.06903" lon="1.35742">
        <ele>368.32</ele>
        <time>2017-04-08T15:05:04Z</time>
      </trkpt>
      <trkpt lat="43.06904" lon="1.35724">
        <ele>366.88</ele>
        <time>2017-04-08T15:05:17Z</time>
      </trkpt>
      <trkpt lat="43.0691" lon="1.35712">
        <ele>367.84</ele>
        <time>2017-04-08T15:06:06Z</time>
      </trkpt>
      <trkpt lat="43.06917" lon="1.35709">
        <ele>367.84</ele>
        <time>2017-04-08T15:06:12Z</time>
      </trkpt>
      <trkpt lat="43.06927" lon="1.35703">
        <ele>368.32</ele>
        <time>2017-04-08T15:06:22Z</time>
      </trkpt>
      <trkpt lat="43.06943" lon="1.35697">
        <ele>366.88</ele>
        <time>2017-04-08T15:06:35Z</time>
      </trkpt>
      <trkpt lat="43.06944" lon="1.35696">
        <ele>366.88</ele>
        <time>2017-04-08T15:06:36Z</time>
      </trkpt>
      <trkpt lat="43.06959" lon="1.3569">
        <ele>366.4</ele>
        <time>2017-04-08T15:06:47Z</time>
      </trkpt>
      <trkpt lat="43.06965" lon="1.35688">
        <ele>365.92</ele>
        <time>2017-04-08T15:06:56Z</time>
      </trkpt>
      <trkpt lat="43.0697" lon="1.35685">
        <ele>364.96</ele>
        <time>2017-04-08T15:07:01Z</time>
      </trkpt>
      <trkpt lat="43.0699" lon="1.35679">
        <ele>363.52</ele>
        <time>2017-04-08T15:07:16Z</time>
      </trkpt>
      <trkpt lat="43.07007" lon="1.35675">
        <ele>362.07</ele>
        <time>2017-04-08T15:07:29Z</time>
      </trkpt>
      <trkpt lat="43.07016" lon="1.35676">
        <ele>361.59</ele>
        <time>2017-04-08T15:07:44Z</time>
      </trkpt>
      <trkpt lat="43.07018" lon="1.35676">
        <ele>361.11</ele>
        <time>2017-04-08T15:07:46Z</time>
      </trkpt>
      <trkpt lat="43.07034" lon="1.35686">
        <ele>359.67</ele>
        <time>2017-04-08T15:08:00Z</time>
      </trkpt>
      <trkpt lat="43.07039" lon="1.35688">
        <ele>359.19</ele>
        <time>2017-04-08T15:08:04Z</time>
      </trkpt>
      <trkpt lat="43.07056" lon="1.35697">
        <ele>357.75</ele>
        <time>2017-04-08T15:08:18Z</time>
      </trkpt>
      <trkpt lat="43.07072" lon="1.35704">
        <ele>355.83</ele>
        <time>2017-04-08T15:08:31Z</time>
      </trkpt>
      <trkpt lat="43.07084" lon="1.35711">
        <ele>353.9</ele>
        <time>2017-04-08T15:08:43Z</time>
      </trkpt>
      <trkpt lat="43.07091" lon="1.35715">
        <ele>353.42</ele>
        <time>2017-04-08T15:08:49Z</time>
      </trkpt>
      <trkpt lat="43.07096" lon="1.35717">
        <ele>353.42</ele>
        <time>2017-04-08T15:08:53Z</time>
      </trkpt>
      <trkpt lat="43.07111" lon="1.35727">
        <ele>351.98</ele>
        <time>2017-04-08T15:09:08Z</time>
      </trkpt>
      <trkpt lat="43.0712" lon="1.35729">
        <ele>351.02</ele>
        <time>2017-04-08T15:10:18Z</time>
      </trkpt>
      <trkpt lat="43.07134" lon="1.35739">
        <ele>349.58</ele>
        <time>2017-04-08T15:10:32Z</time>
      </trkpt>
      <trkpt lat="43.07138" lon="1.35745">
        <ele>348.62</ele>
        <time>2017-04-08T15:10:37Z</time>
      </trkpt>
      <trkpt lat="43.07146" lon="1.35765">
        <ele>346.21</ele>
        <time>2017-04-08T15:10:51Z</time>
      </trkpt>
      <trkpt lat="43.07158" lon="1.35785">
        <ele>343.81</ele>
        <time>2017-04-08T15:11:05Z</time>
      </trkpt>
      <trkpt lat="43.07159" lon="1.35786">
        <ele>343.81</ele>
        <time>2017-04-08T15:11:06Z</time>
      </trkpt>
      <trkpt lat="43.07169" lon="1.3579">
        <ele>342.85</ele>
        <time>2017-04-08T15:11:14Z</time>
      </trkpt>
      <trkpt lat="43.07187" lon="1.35783">
        <ele>341.89</ele>
        <time>2017-04-08T15:11:28Z</time>
      </trkpt>
      <trkpt lat="43.07198" lon="1.35783">
        <ele>341.41</ele>
        <time>2017-04-08T15:11:37Z</time>
      </trkpt>
      <trkpt lat="43.07216" lon="1.35797">
        <ele>338.52</ele>
        <time>2017-04-08T15:11:53Z</time>
      </trkpt>
      <trkpt lat="43.07231" lon="1.3581">
        <ele>336.12</ele>
        <time>2017-04-08T15:12:07Z</time>
      </trkpt>
      <trkpt lat="43.07245" lon="1.35819">
        <ele>334.68</ele>
        <time>2017-04-08T15:12:19Z</time>
      </trkpt>
      <trkpt lat="43.07252" lon="1.35822">
        <ele>334.68</ele>
        <time>2017-04-08T15:12:25Z</time>
      </trkpt>
      <trkpt lat="43.0727" lon="1.35819">
        <ele>332.27</ele>
        <time>2017-04-08T15:12:39Z</time>
      </trkpt>
      <trkpt lat="43.07275" lon="1.35814">
        <ele>331.79</ele>
        <time>2017-04-08T15:12:45Z</time>
      </trkpt>
      <trkpt lat="43.0728" lon="1.35808">
        <ele>331.31</ele>
        <time>2017-04-08T15:12:50Z</time>
      </trkpt>
      <trkpt lat="43.07285" lon="1.35791">
        <ele>328.43</ele>
        <time>2017-04-08T15:13:03Z</time>
      </trkpt>
      <trkpt lat="43.0728" lon="1.35783">
        <ele>327.47</ele>
        <time>2017-04-08T15:13:18Z</time>
      </trkpt>
      <trkpt lat="43.0728" lon="1.35782">
        <ele>327.47</ele>
        <time>2017-04-08T15:13:19Z</time>
      </trkpt>
      <trkpt lat="43.07267" lon="1.3577">
        <ele>325.54</ele>
        <time>2017-04-08T15:13:33Z</time>
      </trkpt>
      <trkpt lat="43.0726" lon="1.35764">
        <ele>324.58</ele>
        <time>2017-04-08T15:13:58Z</time>
      </trkpt>
      <trkpt lat="43.07243" lon="1.35753">
        <ele>322.66</ele>
        <time>2017-04-08T15:14:12Z</time>
      </trkpt>
      <trkpt lat="43.07226" lon="1.35743">
        <ele>320.26</ele>
        <time>2017-04-08T15:14:27Z</time>
      </trkpt>
      <trkpt lat="43.07208" lon="1.35728">
        <ele>317.37</ele>
        <time>2017-04-08T15:14:43Z</time>
      </trkpt>
      <trkpt lat="43.07191" lon="1.35721">
        <ele>315.93</ele>
        <time>2017-04-08T15:14:56Z</time>
      </trkpt>
      <trkpt lat="43.07189" lon="1.35721">
        <ele>315.93</ele>
        <time>2017-04-08T15:14:58Z</time>
      </trkpt>
      <trkpt lat="43.07181" lon="1.35712">
        <ele>314.49</ele>
        <time>2017-04-08T15:15:07Z</time>
      </trkpt>
      <trkpt lat="43.07182" lon="1.35702">
        <ele>314.01</ele>
        <time>2017-04-08T15:15:12Z</time>
      </trkpt>
      <trkpt lat="43.07194" lon="1.35683">
        <ele>311.6</ele>
        <time>2017-04-08T15:15:25Z</time>
      </trkpt>
      <trkpt lat="43.07196" lon="1.35682">
        <ele>311.6</ele>
        <time>2017-04-08T15:15:27Z</time>
      </trkpt>
      <trkpt lat="43.07205" lon="1.35678">
        <ele>311.12</ele>
        <time>2017-04-08T15:15:39Z</time>
      </trkpt>
      <trkpt lat="43.07218" lon="1.35674">
        <ele>310.64</ele>
        <time>2017-04-08T15:15:51Z</time>
      </trkpt>
      <trkpt lat="43.0723" lon="1.35675">
        <ele>310.16</ele>
        <time>2017-04-08T15:16:00Z</time>
      </trkpt>
      <trkpt lat="43.0725" lon="1.35685">
        <ele>308.72</ele>
        <time>2017-04-08T15:16:16Z</time>
      </trkpt>
      <trkpt lat="43.07266" lon="1.35678">
        <ele>305.36</ele>
        <time>2017-04-08T15:16:30Z</time>
      </trkpt>
      <trkpt lat="43.07282" lon="1.35671">
        <ele>302.95</ele>
        <time>2017-04-08T15:16:43Z</time>
      </trkpt>
      <trkpt lat="43.07261" lon="1.3566">
        <ele>301.99</ele>
        <time>2017-04-08T15:23:29Z</time>
      </trkpt>
      <trkpt lat="43.07253" lon="1.35654">
        <ele>302.47</ele>
        <time>2017-04-08T15:23:42Z</time>
      </trkpt>
    </trkseg>
  </trk>
</gpx>